Observation data for Dozier on 11/19/2019      Previous  Date       Current Mesonet Observations  Soil Data  Daily Summary Page  Observations in Plain Language
KDO1 190600Z 34003KT 08/01 A2996 RMK A01 T00840008  RH  059%=      5-min Rain = 0
KDO1 190601Z 34002KT 08/01 A2996 RMK A01 T00800009  RH  060%=      5-min Rain = 0
KDO1 190602Z 35002KT 08/01 A2996 RMK A01 T00790009  RH  061%=      5-min Rain = 0
KDO1 190603Z 01002KT 08/01 A2996 RMK A01 T00780009  RH  062%=      5-min Rain = 0
KDO1 190604Z 01002KT 08/01 A2996 RMK A01 T00770011  RH  063%=      5-min Rain = 0
KDO1 190605Z 02003KT 08/01 A2996 RMK A01 T00780013  RH  064%=      5-min Rain = 0
KDO1 190606Z 02003KT 08/02 A2996 RMK A01 T00790015  RH  063%=      5-min Rain = 0
KDO1 190607Z 01003KT 08/02 A2996 RMK A01 T00810015  RH  063%=      5-min Rain = 0
KDO1 190608Z 01004KT 08/02 A2996 RMK A01 T00830016  RH  062%=      5-min Rain = 0
KDO1 190609Z 01005KT 09/02 A2996 RMK A01 T00860016  RH  062%=      5-min Rain = 0
KDO1 190610Z 00005KT 09/02 A2995 RMK A01 T00880016  RH  061%=      5-min Rain = 0
KDO1 190611Z 00006KT 09/02 A2995 RMK A01 T00900018  RH  060%=      5-min Rain = 0
KDO1 190612Z 36007KT 09/02 A2995 RMK A01 T00940020  RH  060%=      5-min Rain = 0
KDO1 190613Z 00008KT 10/02 A2995 RMK A01 T00970020  RH  059%=      5-min Rain = 0
KDO1 190614Z 36008KT 10/02 A2995 RMK A01 T00980020  RH  058%=      5-min Rain = 0
KDO1 190615Z 00008KT 10/02 A2995 RMK A01 T00980020  RH  058%=      5-min Rain = 0
KDO1 190616Z 00008KT 10/02 A2995 RMK A01 T00990020  RH  058%=      5-min Rain = 0
KDO1 190617Z 36009KT 10/02 A2995 RMK A01 T01000020  RH  057%=      5-min Rain = 0
KDO1 190618Z 36009KT 10/02 A2995 RMK A01 T01010020  RH  057%=      5-min Rain = 0
KDO1 190619Z 00009KT 10/02 A2995 RMK A01 T01020020  RH  057%=      5-min Rain = 0
KDO1 190620Z 00009KT 10/02 A2995 RMK A01 T01030020  RH  056%=      5-min Rain = 0
KDO1 190621Z 00009KT 10/02 A2995 RMK A01 T01030020  RH  056%=      5-min Rain = 0
KDO1 190622Z 00009KT 10/02 A2995 RMK A01 T01040020  RH  056%=      5-min Rain = 0
KDO1 190623Z 00009KT 10/02 A2995 RMK A01 T01040020  RH  056%=      5-min Rain = 0
KDO1 190624Z 00009KT 11/02 A2995 RMK A01 T01050020  RH  056%=      5-min Rain = 0
KDO1 190625Z 00009KT 11/02 A2995 RMK A01 T01060020  RH  055%=      5-min Rain = 0
KDO1 190626Z 00009KT 11/02 A2995 RMK A01 T01060020  RH  055%=      5-min Rain = 0
KDO1 190627Z 01009KT 11/02 A2994 RMK A01 T01060020  RH  055%=      5-min Rain = 0
KDO1 190628Z 01009KT 11/02 A2994 RMK A01 T01060020  RH  055%=      5-min Rain = 0
KDO1 190629Z 01008KT 11/02 A2994 RMK A01 T01060020  RH  055%=      5-min Rain = 0
KDO1 190630Z 01009KT 11/02 A2994 RMK A01 T01050020  RH  055%=      5-min Rain = 0
KDO1 190631Z 01009KT 11/02 A2994 RMK A01 T01060020  RH  055%=      5-min Rain = 0
KDO1 190632Z 01009KT 11/02 A2994 RMK A01 T01060020  RH  055%=      5-min Rain = 0
KDO1 190633Z 01009KT 11/02 A2994 RMK A01 T01070020  RH  055%=      5-min Rain = 0
KDO1 190634Z 01009KT 11/02 A2994 RMK A01 T01070020  RH  055%=      5-min Rain = 0
KDO1 190635Z 01009KT 11/02 A2994 RMK A01 T01070020  RH  055%=      5-min Rain = 0
KDO1 190636Z 01009KT 11/02 A2994 RMK A01 T01070020  RH  055%=      5-min Rain = 0
KDO1 190637Z 01009KT 11/02 A2994 RMK A01 T01070020  RH  055%=      5-min Rain = 0
KDO1 190638Z 02009KT 11/02 A2994 RMK A01 T01070020  RH  055%=      5-min Rain = 0
KDO1 190639Z 02009KT 11/02 A2994 RMK A01 T01070020  RH  055%=      5-min Rain = 0
KDO1 190640Z 02009KT 11/02 A2994 RMK A01 T01080020  RH  055%=      5-min Rain = 0
KDO1 190641Z 02009KT 11/02 A2994 RMK A01 T01080020  RH  055%=      5-min Rain = 0
KDO1 190642Z 02009KT 11/02 A2994 RMK A01 T01080020  RH  055%=      5-min Rain = 0
KDO1 190643Z 02008KT 11/02 A2994 RMK A01 T01080020  RH  055%=      5-min Rain = 0
KDO1 190644Z 02008KT 11/02 A2994 RMK A01 T01090021  RH  054%=      5-min Rain = 0
KDO1 190645Z 02008KT 11/02 A2994 RMK A01 T01090021  RH  054%=      5-min Rain = 0
KDO1 190646Z 02008KT 11/02 A2994 RMK A01 T01090021  RH  054%=      5-min Rain = 0
KDO1 190647Z 02008KT 11/02 A2994 RMK A01 T01100021  RH  054%=      5-min Rain = 0
KDO1 190648Z 02008KT 11/02 A2994 RMK A01 T01100021  RH  054%=      5-min Rain = 0
KDO1 190649Z 02008KT 11/02 A2994 RMK A01 T01110021  RH  054%=      5-min Rain = 0
KDO1 190650Z 02008KT 11/02 A2994 RMK A01 T01120022  RH  054%=      5-min Rain = 0
KDO1 190651Z 02008KT 11/02 A2994 RMK A01 T01120022  RH  054%=      5-min Rain = 0
KDO1 190652Z 02007KT 11/02 A2994 RMK A01 T01140022  RH  053%=      5-min Rain = 0
KDO1 190653Z 02007KT 12/02 A2994 RMK A01 T01150023  RH  053%=      5-min Rain = 0
KDO1 190654Z 01007KT 12/02 A2994 RMK A01 T01170023  RH  052%=      5-min Rain = 0
KDO1 190655Z 01007KT 12/02 A2994 RMK A01 T01190023  RH  052%=      5-min Rain = 0
KDO1 190656Z 01006KT 12/02 A2995 RMK A01 T01180023  RH  052%=      5-min Rain = 0
KDO1 190657Z 01007KT 12/02 A2995 RMK A01 T01180023  RH  052%=      5-min Rain = 0
KDO1 190658Z 00006KT 12/02 A2995 RMK A01 T01180023  RH  052%=      5-min Rain = 0
KDO1 190659Z 00006KT 12/02 A2995 RMK A01 T01170023  RH  052%=      5-min Rain = 0
KDO1 190700Z 36006KT 12/02 A2995 RMK A01 T01170023  RH  053%=      5-min Rain = 0
KDO1 190701Z 36007KT 12/02 A2995 RMK A01 T01170024  RH  053%=      5-min Rain = 0
KDO1 190702Z 35007KT 12/02 A2995 RMK A01 T01190024  RH  052%=      5-min Rain = 0
KDO1 190703Z 35007KT 12/02 A2996 RMK A01 T01200024  RH  052%=      5-min Rain = 0
KDO1 190704Z 35007KT 12/02 A2996 RMK A01 T01210024  RH  051%=      5-min Rain = 0
KDO1 190705Z 34006KT 12/02 A2996 RMK A01 T01200024  RH  052%=      5-min Rain = 0
KDO1 190706Z 34006KT 12/02 A2996 RMK A01 T01180023  RH  052%=      5-min Rain = 0
KDO1 190707Z 34006KT 12/02 A2996 RMK A01 T01170024  RH  053%=      5-min Rain = 0
KDO1 190708Z 34007KT 12/02 A2996 RMK A01 T01170023  RH  053%=      5-min Rain = 0
KDO1 190709Z 34006KT 12/02 A2997 RMK A01 T01170024  RH  053%=      5-min Rain = 0
KDO1 190710Z 34007KT 12/03 A2997 RMK A01 T01190025  RH  053%=      5-min Rain = 0
KDO1 190711Z 34007KT 12/03 A2997 RMK A01 T01200025  RH  052%=      5-min Rain = 0
KDO1 190712Z 34006KT 12/03 A2997 RMK A01 T01210025  RH  052%=      5-min Rain = 0
KDO1 190713Z 34007KT 12/03 A2997 RMK A01 T01210025  RH  052%=      5-min Rain = 0
KDO1 190714Z 35006KT 12/02 A2997 RMK A01 T01200024  RH  052%=      5-min Rain = 0
KDO1 190715Z 35006KT 12/03 A2997 RMK A01 T01190025  RH  052%=      5-min Rain = 0
KDO1 190716Z 35006KT 12/03 A2997 RMK A01 T01200025  RH  052%=      5-min Rain = 0
KDO1 190717Z 36006KT 12/03 A2997 RMK A01 T01200025  RH  052%=      5-min Rain = 0
KDO1 190718Z 36006KT 12/03 A2997 RMK A01 T01200026  RH  052%=      5-min Rain = 0
KDO1 190719Z 00006KT 12/03 A2997 RMK A01 T01220026  RH  052%=      5-min Rain = 0
KDO1 190720Z 00006KT 12/03 A2997 RMK A01 T01230026  RH  051%=      5-min Rain = 0
KDO1 190721Z 00006KT 12/03 A2997 RMK A01 T01230025  RH  051%=      5-min Rain = 0
KDO1 190722Z 00006KT 12/03 A2997 RMK A01 T01230026  RH  051%=      5-min Rain = 0
KDO1 190723Z 36006KT 12/03 A2997 RMK A01 T01220025  RH  051%=      5-min Rain = 0
KDO1 190724Z 36005KT 12/02 A2997 RMK A01 T01190024  RH  052%=      5-min Rain = 0
KDO1 190725Z 35005KT 12/02 A2997 RMK A01 T01170023  RH  053%=      5-min Rain = 0
KDO1 190726Z 34005KT 12/02 A2997 RMK A01 T01150023  RH  053%=      5-min Rain = 0
KDO1 190727Z 34005KT 11/02 A2997 RMK A01 T01120022  RH  054%=      5-min Rain = 0
KDO1 190728Z 34005KT 11/02 A2997 RMK A01 T01100022  RH  055%=      5-min Rain = 0
KDO1 190729Z 34005KT 11/02 A2997 RMK A01 T01080022  RH  055%=      5-min Rain = 0
KDO1 190730Z 34004KT 11/02 A2997 RMK A01 T01070022  RH  056%=      5-min Rain = 0
KDO1 190731Z 34004KT 11/02 A2997 RMK A01 T01060022  RH  056%=      5-min Rain = 0
KDO1 190732Z 35003KT 11/02 A2997 RMK A01 T01060022  RH  056%=      5-min Rain = 0
KDO1 190733Z 35003KT 11/02 A2997 RMK A01 T01050021  RH  056%=      5-min Rain = 0
KDO1 190734Z 35004KT 10/02 A2997 RMK A01 T01030021  RH  057%=      5-min Rain = 0
KDO1 190735Z 34004KT 10/02 A2997 RMK A01 T01030021  RH  057%=      5-min Rain = 0
KDO1 190736Z 34005KT 10/02 A2997 RMK A01 T01020022  RH  058%=      5-min Rain = 0
KDO1 190737Z 34005KT 10/02 A2997 RMK A01 T01020022  RH  057%=      5-min Rain = 0
KDO1 190738Z 34004KT 10/02 A2997 RMK A01 T01010021  RH  058%=      5-min Rain = 0
KDO1 190739Z 34005KT 10/02 A2997 RMK A01 T01010021  RH  057%=      5-min Rain = 0
KDO1 190740Z 34005KT 10/02 A2997 RMK A01 T01010022  RH  058%=      5-min Rain = 0
KDO1 190741Z 34005KT 10/02 A2997 RMK A01 T01020022  RH  058%=      5-min Rain = 0
KDO1 190742Z 35005KT 10/02 A2997 RMK A01 T01040024  RH  058%=      5-min Rain = 0
KDO1 190743Z 34004KT 11/02 A2997 RMK A01 T01060024  RH  057%=      5-min Rain = 0
KDO1 190744Z 34004KT 11/02 A2997 RMK A01 T01070024  RH  056%=      5-min Rain = 0
KDO1 190745Z 34005KT 11/02 A2997 RMK A01 T01080024  RH  056%=      5-min Rain = 0
KDO1 190746Z 35005KT 11/02 A2997 RMK A01 T01090024  RH  056%=      5-min Rain = 0
KDO1 190747Z 35005KT 11/02 A2997 RMK A01 T01090024  RH  056%=      5-min Rain = 0
KDO1 190748Z 35004KT 11/02 A2997 RMK A01 T01070024  RH  056%=      5-min Rain = 0
KDO1 190749Z 00004KT 11/02 A2997 RMK A01 T01070023  RH  056%=      5-min Rain = 0
KDO1 190750Z 01004KT 10/02 A2997 RMK A01 T01040018  RH  055%=      5-min Rain = 0
KDO1 190751Z 01003KT 10/02 A2996 RMK A01 T01000017  RH  056%=      5-min Rain = 0
KDO1 190752Z 07001KT 10/01 A2997 RMK A01 T00950013  RH  057%=      5-min Rain = 0
KDO1 190753Z 03001KT 09/01 A2997 RMK A01 T00890012  RH  058%=      5-min Rain = 0
KDO1 190754Z 10001KT 09/01 A2997 RMK A01 T00850012  RH  060%=      5-min Rain = 0
KDO1 190755Z 03000KT 08/01 A2997 RMK A01 T00810011  RH  061%=      5-min Rain = 0
KDO1 190756Z 15001KT 08/01 A2997 RMK A01 T00790012  RH  062%=      5-min Rain = 0
KDO1 190757Z 15002KT 08/01 A2997 RMK A01 T00770012  RH  063%=      5-min Rain = 0
KDO1 190758Z 15002KT 08/01 A2997 RMK A01 T00770012  RH  064%=      5-min Rain = 0
KDO1 190759Z 16001KT 08/01 A2997 RMK A01 T00760012  RH  064%=      5-min Rain = 0
KDO1 190800Z 15001KT 08/01 A2997 RMK A01 T00750012  RH  064%=      5-min Rain = 0
KDO1 190801Z 15001KT 07/01 A2997 RMK A01 T00740012  RH  065%=      5-min Rain = 0
KDO1 190802Z 16000KT 07/01 A2997 RMK A01 T00740013  RH  065%=      5-min Rain = 0
KDO1 190803Z 12000KT 07/01 A2997 RMK A01 T00740013  RH  065%=      5-min Rain = 0
KDO1 190804Z 29000KT 07/01 A2997 RMK A01 T00730013  RH  066%=      5-min Rain = 0
KDO1 190805Z 36000KT 07/01 A2997 RMK A01 T00730013  RH  066%=      5-min Rain = 0
KDO1 190806Z 36000KT 07/01 A2997 RMK A01 T00730013  RH  066%=      5-min Rain = 0
KDO1 190807Z 00000KT 07/01 A2997 RMK A01 T00730012  RH  065%=      5-min Rain = 0
KDO1 190808Z 11000KT 07/01 A2997 RMK A01 T00720012  RH  066%=      5-min Rain = 0
KDO1 190809Z 10000KT 07/01 A2997 RMK A01 T00720013  RH  066%=      5-min Rain = 0
KDO1 190810Z 12001KT 07/01 A2997 RMK A01 T00720013  RH  066%=      5-min Rain = 0
KDO1 190811Z 13001KT 07/01 A2997 RMK A01 T00720013  RH  066%=      5-min Rain = 0
KDO1 190812Z 15002KT 07/01 A2997 RMK A01 T00720013  RH  066%=      5-min Rain = 0
KDO1 190813Z 16002KT 07/01 A2997 RMK A01 T00710013  RH  066%=      5-min Rain = 0
KDO1 190814Z 18001KT 07/01 A2997 RMK A01 T00720013  RH  066%=      5-min Rain = 0
KDO1 190815Z 18001KT 07/01 A2997 RMK A01 T00710013  RH  066%=      5-min Rain = 0
KDO1 190816Z 19001KT 07/01 A2997 RMK A01 T00700012  RH  066%=      5-min Rain = 0
KDO1 190817Z 19000KT 07/01 A2997 RMK A01 T00700011  RH  066%=      5-min Rain = 0
KDO1 190818Z 00000KT 07/01 A2997 RMK A01 T00690011  RH  067%=      5-min Rain = 0
KDO1 190819Z 18000KT 07/01 A2997 RMK A01 T00680012  RH  067%=      5-min Rain = 0
KDO1 190820Z 00000KT 07/01 A2997 RMK A01 T00670012  RH  068%=      5-min Rain = 0
KDO1 190821Z 15001KT 07/01 A2997 RMK A01 T00670013  RH  068%=      5-min Rain = 0
KDO1 190822Z 16001KT 07/01 A2997 RMK A01 T00670013  RH  068%=      5-min Rain = 0
KDO1 190823Z 17001KT 07/01 A2997 RMK A01 T00670013  RH  068%=      5-min Rain = 0
KDO1 190824Z 17002KT 07/01 A2997 RMK A01 T00680014  RH  068%=      5-min Rain = 0
KDO1 190825Z 19002KT 07/01 A2997 RMK A01 T00680012  RH  068%=      5-min Rain = 0
KDO1 190826Z 20002KT 07/01 A2997 RMK A01 T00670010  RH  067%=      5-min Rain = 0
KDO1 190827Z 21002KT 07/01 A2997 RMK A01 T00650009  RH  067%=      5-min Rain = 0
KDO1 190828Z 22003KT 06/01 A2997 RMK A01 T00620006  RH  067%=      5-min Rain = 0
KDO1 190829Z 22003KT 06/00 A2997 RMK A01 T00590004  RH  068%=      5-min Rain = 0
KDO1 190830Z 22003KT 06/00 A2997 RMK A01 T00570004  RH  068%=      5-min Rain = 0
KDO1 190831Z 23003KT 06/00 A2997 RMK A01 T00560003  RH  069%=      5-min Rain = 0
KDO1 190832Z 22004KT 05/00 A2997 RMK A01 T00530000  RH  069%=      5-min Rain = 0
KDO1 190833Z 23005KT 05/M00 A2997 RMK A01 T00511001  RH  069%=      5-min Rain = 0
KDO1 190834Z 23005KT 05/00 A2997 RMK A01 T00490002  RH  072%=      5-min Rain = 0
KDO1 190835Z 23005KT 05/00 A2997 RMK A01 T00480003  RH  072%=      5-min Rain = 0
KDO1 190836Z 23005KT 05/00 A2997 RMK A01 T00480004  RH  073%=      5-min Rain = 0
KDO1 190837Z 23005KT 05/00 A2997 RMK A01 T00480003  RH  073%=      5-min Rain = 0
KDO1 190838Z 24005KT 05/00 A2997 RMK A01 T00470002  RH  073%=      5-min Rain = 0
KDO1 190839Z 24006KT 05/00 A2997 RMK A01 T00460002  RH  073%=      5-min Rain = 0
KDO1 190840Z 25006KT 05/00 A2997 RMK A01 T00460004  RH  074%=      5-min Rain = 0
KDO1 190841Z 26006KT 05/01 A2997 RMK A01 T00470006  RH  075%=      5-min Rain = 0
KDO1 190842Z 27005KT 05/01 A2997 RMK A01 T00480007  RH  074%=      5-min Rain = 0
KDO1 190843Z 27005KT 05/01 A2997 RMK A01 T00490007  RH  074%=      5-min Rain = 0
KDO1 190844Z 26006KT 05/01 A2997 RMK A01 T00510008  RH  074%=      5-min Rain = 0
KDO1 190845Z 26005KT 05/01 A2997 RMK A01 T00530010  RH  074%=      5-min Rain = 0
KDO1 190846Z 26005KT 06/01 A2997 RMK A01 T00550011  RH  073%=      5-min Rain = 0
KDO1 190847Z 26005KT 06/01 A2997 RMK A01 T00570012  RH  073%=      5-min Rain = 0
KDO1 190848Z 28005KT 06/01 A2997 RMK A01 T00580012  RH  072%=      5-min Rain = 0
KDO1 190849Z 27005KT 06/01 A2997 RMK A01 T00590011  RH  071%=      5-min Rain = 0
KDO1 190850Z 28005KT 06/01 A2997 RMK A01 T00590011  RH  071%=      5-min Rain = 0
KDO1 190851Z 28006KT 06/01 A2997 RMK A01 T00610013  RH  071%=      5-min Rain = 0
KDO1 190852Z 27006KT 06/01 A2997 RMK A01 T00630014  RH  071%=      5-min Rain = 0
KDO1 190853Z 27006KT 06/01 A2997 RMK A01 T00640014  RH  070%=      5-min Rain = 0
KDO1 190854Z 27006KT 07/02 A2997 RMK A01 T00670015  RH  069%=      5-min Rain = 0
KDO1 190855Z 27007KT 07/02 A2997 RMK A01 T00680015  RH  069%=      5-min Rain = 0
KDO1 190856Z 27007KT 07/02 A2998 RMK A01 T00700016  RH  068%=      5-min Rain = 0
KDO1 190857Z 28007KT 07/02 A2998 RMK A01 T00730017  RH  068%=      5-min Rain = 0
KDO1 190858Z 28007KT 08/02 A2998 RMK A01 T00750017  RH  067%=      5-min Rain = 0
KDO1 190859Z 28007KT 08/02 A2998 RMK A01 T00770017  RH  066%=      5-min Rain = 0
KDO1 190900Z 28007KT 08/02 A2998 RMK A01 T00780017  RH  065%=      5-min Rain = 0
KDO1 190901Z 28007KT 08/02 A2998 RMK A01 T00790017  RH  065%=      5-min Rain = 0
KDO1 190902Z 28007KT 08/02 A2998 RMK A01 T00790017  RH  065%=      5-min Rain = 0
KDO1 190903Z 28007KT 08/02 A2998 RMK A01 T00790017  RH  065%=      5-min Rain = 0
KDO1 190904Z 29007KT 08/02 A2998 RMK A01 T00790018  RH  065%=      5-min Rain = 0
KDO1 190905Z 29007KT 08/02 A2997 RMK A01 T00810019  RH  065%=      5-min Rain = 0
KDO1 190906Z 29007KT 08/02 A2997 RMK A01 T00830020  RH  064%=      5-min Rain = 0
KDO1 190907Z 29007KT 09/02 A2997 RMK A01 T00860021  RH  064%=      5-min Rain = 0
KDO1 190908Z 29007KT 09/02 A2997 RMK A01 T00880021  RH  063%=      5-min Rain = 0
KDO1 190909Z 30008KT 09/02 A2997 RMK A01 T00890021  RH  062%=      5-min Rain = 0
KDO1 190910Z 29008KT 09/02 A2997 RMK A01 T00900021  RH  062%=      5-min Rain = 0
KDO1 190911Z 30008KT 09/02 A2997 RMK A01 T00910021  RH  062%=      5-min Rain = 0
KDO1 190912Z 30008KT 09/02 A2997 RMK A01 T00920021  RH  061%=      5-min Rain = 0
KDO1 190913Z 30009KT 09/02 A2997 RMK A01 T00920021  RH  061%=      5-min Rain = 0
KDO1 190914Z 30008KT 09/02 A2997 RMK A01 T00930021  RH  061%=      5-min Rain = 0
KDO1 190915Z 30008KT 09/02 A2997 RMK A01 T00940022  RH  061%=      5-min Rain = 0
KDO1 190916Z 30007KT 10/02 A2997 RMK A01 T00970023  RH  060%=      5-min Rain = 0
KDO1 190917Z 30007KT 10/02 A2997 RMK A01 T00990024  RH  059%=      5-min Rain = 0
KDO1 190918Z 29007KT 10/02 A2997 RMK A01 T01010024  RH  059%=      5-min Rain = 0
KDO1 190919Z 29006KT 10/02 A2997 RMK A01 T01010024  RH  058%=      5-min Rain = 0
KDO1 190920Z 30006KT 10/02 A2997 RMK A01 T01020024  RH  058%=      5-min Rain = 0
KDO1 190921Z 30006KT 10/02 A2997 RMK A01 T01030024  RH  058%=      5-min Rain = 0
KDO1 190922Z 30006KT 10/02 A2997 RMK A01 T01040024  RH  058%=      5-min Rain = 0
KDO1 190923Z 30007KT 11/03 A2997 RMK A01 T01050025  RH  058%=      5-min Rain = 0
KDO1 190924Z 30007KT 11/02 A2997 RMK A01 T01060024  RH  057%=      5-min Rain = 0
KDO1 190925Z 29007KT 11/02 A2997 RMK A01 T01060024  RH  057%=      5-min Rain = 0
KDO1 190926Z 29007KT 11/02 A2997 RMK A01 T01060024  RH  057%=      5-min Rain = 0
KDO1 190927Z 29008KT 11/02 A2997 RMK A01 T01060024  RH  057%=      5-min Rain = 0
KDO1 190928Z 29008KT 11/02 A2997 RMK A01 T01060024  RH  057%=      5-min Rain = 0
KDO1 190929Z 30008KT 11/03 A2997 RMK A01 T01070025  RH  057%=      5-min Rain = 0
KDO1 190930Z 30008KT 11/03 A2997 RMK A01 T01080025  RH  056%=      5-min Rain = 0
KDO1 190931Z 30008KT 11/03 A2997 RMK A01 T01090025  RH  056%=      5-min Rain = 0
KDO1 190932Z 30008KT 11/03 A2997 RMK A01 T01100025  RH  056%=      5-min Rain = 0
KDO1 190933Z 30008KT 11/03 A2997 RMK A01 T01100025  RH  056%=      5-min Rain = 0
KDO1 190934Z 30008KT 11/03 A2997 RMK A01 T01100025  RH  056%=      5-min Rain = 0
KDO1 190935Z 30008KT 11/02 A2997 RMK A01 T01090024  RH  056%=      5-min Rain = 0
KDO1 190936Z 30008KT 11/02 A2997 RMK A01 T01070024  RH  056%=      5-min Rain = 0
KDO1 190937Z 30008KT 11/02 A2997 RMK A01 T01050023  RH  057%=      5-min Rain = 0
KDO1 190938Z 30008KT 10/02 A2997 RMK A01 T01040024  RH  057%=      5-min Rain = 0
KDO1 190939Z 30007KT 11/02 A2997 RMK A01 T01050024  RH  058%=      5-min Rain = 0
KDO1 190940Z 30007KT 11/02 A2997 RMK A01 T01050024  RH  057%=      5-min Rain = 0
KDO1 190941Z 30006KT 11/02 A2997 RMK A01 T01050024  RH  057%=      5-min Rain = 0
KDO1 190942Z 30006KT 11/02 A2997 RMK A01 T01050024  RH  057%=      5-min Rain = 0
KDO1 190943Z 31006KT 10/02 A2997 RMK A01 T01030024  RH  058%=      5-min Rain = 0
KDO1 190944Z 31006KT 10/02 A2997 RMK A01 T01030024  RH  058%=      5-min Rain = 0
KDO1 190945Z 32006KT 10/02 A2997 RMK A01 T01010023  RH  058%=      5-min Rain = 0
KDO1 190946Z 32006KT 10/02 A2997 RMK A01 T00990023  RH  059%=      5-min Rain = 0
KDO1 190947Z 32006KT 10/02 A2997 RMK A01 T00980024  RH  060%=      5-min Rain = 0
KDO1 190948Z 32006KT 10/02 A2997 RMK A01 T00970023  RH  060%=      5-min Rain = 0
KDO1 190949Z 32006KT 10/02 A2997 RMK A01 T00980024  RH  060%=      5-min Rain = 0
KDO1 190950Z 32006KT 10/02 A2997 RMK A01 T00980024  RH  060%=      5-min Rain = 0
KDO1 190951Z 32005KT 10/02 A2997 RMK A01 T00980023  RH  059%=      5-min Rain = 0
KDO1 190952Z 32005KT 10/02 A2997 RMK A01 T00980023  RH  060%=      5-min Rain = 0
KDO1 190953Z 32004KT 10/02 A2997 RMK A01 T00970023  RH  060%=      5-min Rain = 0
KDO1 190954Z 32004KT 10/02 A2997 RMK A01 T00950022  RH  060%=      5-min Rain = 0
KDO1 190955Z 32004KT 09/02 A2997 RMK A01 T00940022  RH  061%=      5-min Rain = 0
KDO1 190956Z 32004KT 09/02 A2997 RMK A01 T00930021  RH  061%=      5-min Rain = 0
KDO1 190957Z 33003KT 09/02 A2997 RMK A01 T00910021  RH  061%=      5-min Rain = 0
KDO1 190958Z 34003KT 09/02 A2997 RMK A01 T00890019  RH  062%=      5-min Rain = 0
KDO1 190959Z 34004KT 09/02 A2997 RMK A01 T00860018  RH  062%=      5-min Rain = 0
KDO1 191000Z 33004KT 08/02 A2997 RMK A01 T00830017  RH  063%=      5-min Rain = 0
KDO1 191001Z 33003KT 08/02 A2997 RMK A01 T00780015  RH  064%=      5-min Rain = 0
KDO1 191002Z 33004KT 08/01 A2997 RMK A01 T00750014  RH  065%=      5-min Rain = 0
KDO1 191003Z 33004KT 07/01 A2997 RMK A01 T00720014  RH  067%=      5-min Rain = 0
KDO1 191004Z 33004KT 07/02 A2997 RMK A01 T00700015  RH  068%=      5-min Rain = 0
KDO1 191005Z 33004KT 07/02 A2997 RMK A01 T00690016  RH  069%=      5-min Rain = 0
KDO1 191006Z 33004KT 07/02 A2997 RMK A01 T00690016  RH  069%=      5-min Rain = 0
KDO1 191007Z 32004KT 07/02 A2997 RMK A01 T00690016  RH  069%=      5-min Rain = 0
KDO1 191008Z 32004KT 07/02 A2997 RMK A01 T00690016  RH  069%=      5-min Rain = 0
KDO1 191009Z 30004KT 07/02 A2997 RMK A01 T00680015  RH  069%=      5-min Rain = 0
KDO1 191010Z 31004KT 07/02 A2997 RMK A01 T00680016  RH  069%=      5-min Rain = 0
KDO1 191011Z 31004KT 07/02 A2997 RMK A01 T00670016  RH  069%=      5-min Rain = 0
KDO1 191012Z 31004KT 07/01 A2997 RMK A01 T00670014  RH  069%=      5-min Rain = 0
KDO1 191013Z 31003KT 06/01 A2997 RMK A01 T00640012  RH  069%=      5-min Rain = 0
KDO1 191014Z 32003KT 06/01 A2997 RMK A01 T00630013  RH  071%=      5-min Rain = 0
KDO1 191015Z 32003KT 06/02 A2997 RMK A01 T00630015  RH  071%=      5-min Rain = 0
KDO1 191016Z 32003KT 06/02 A2997 RMK A01 T00640016  RH  071%=      5-min Rain = 0
KDO1 191017Z 32003KT 07/02 A2997 RMK A01 T00660017  RH  071%=      5-min Rain = 0
KDO1 191018Z 32003KT 07/02 A2997 RMK A01 T00690019  RH  071%=      5-min Rain = 0
KDO1 191019Z 32004KT 07/02 A2997 RMK A01 T00710019  RH  069%=      5-min Rain = 0
KDO1 191020Z 32004KT 07/02 A2997 RMK A01 T00710017  RH  069%=      5-min Rain = 0
KDO1 191021Z 31004KT 07/02 A2997 RMK A01 T00700016  RH  068%=      5-min Rain = 0
KDO1 191022Z 32004KT 07/02 A2997 RMK A01 T00690017  RH  069%=      5-min Rain = 0
KDO1 191023Z 31004KT 07/02 A2997 RMK A01 T00710018  RH  069%=      5-min Rain = 0
KDO1 191024Z 31004KT 07/02 A2997 RMK A01 T00720018  RH  069%=      5-min Rain = 0
KDO1 191025Z 32004KT 07/02 A2997 RMK A01 T00720017  RH  068%=      5-min Rain = 0
KDO1 191026Z 32004KT 07/02 A2997 RMK A01 T00710018  RH  069%=      5-min Rain = 0
KDO1 191027Z 32004KT 07/02 A2997 RMK A01 T00710018  RH  069%=      5-min Rain = 0
KDO1 191028Z 33004KT 07/02 A2997 RMK A01 T00710019  RH  069%=      5-min Rain = 0
KDO1 191029Z 33004KT 07/02 A2997 RMK A01 T00740021  RH  069%=      5-min Rain = 0
KDO1 191030Z 33004KT 08/02 A2997 RMK A01 T00770021  RH  068%=      5-min Rain = 0
KDO1 191031Z 33004KT 08/02 A2997 RMK A01 T00770020  RH  067%=      5-min Rain = 0
KDO1 191032Z 33004KT 08/02 A2997 RMK A01 T00780021  RH  067%=      5-min Rain = 0
KDO1 191033Z 33004KT 08/02 A2997 RMK A01 T00790021  RH  067%=      5-min Rain = 0
KDO1 191034Z 34004KT 08/02 A2997 RMK A01 T00800021  RH  066%=      5-min Rain = 0
KDO1 191035Z 34005KT 08/02 A2997 RMK A01 T00800021  RH  066%=      5-min Rain = 0
KDO1 191036Z 34004KT 08/02 A2997 RMK A01 T00790020  RH  066%=      5-min Rain = 0
KDO1 191037Z 35005KT 08/02 A2997 RMK A01 T00770019  RH  067%=      5-min Rain = 0
KDO1 191038Z 35005KT 08/02 A2997 RMK A01 T00750018  RH  067%=      5-min Rain = 0
KDO1 191039Z 35005KT 07/02 A2997 RMK A01 T00730018  RH  068%=      5-min Rain = 0
KDO1 191040Z 36005KT 07/02 A2997 RMK A01 T00720018  RH  069%=      5-min Rain = 0
KDO1 191041Z 35005KT 07/02 A2997 RMK A01 T00710018  RH  069%=      5-min Rain = 0
KDO1 191042Z 35005KT 07/02 A2997 RMK A01 T00710019  RH  070%=      5-min Rain = 0
KDO1 191043Z 35005KT 07/02 A2997 RMK A01 T00710019  RH  070%=      5-min Rain = 0
KDO1 191044Z 35005KT 07/02 A2997 RMK A01 T00720020  RH  070%=      5-min Rain = 0
KDO1 191045Z 35005KT 07/02 A2997 RMK A01 T00720020  RH  070%=      5-min Rain = 0
KDO1 191046Z 35005KT 07/02 A2997 RMK A01 T00720020  RH  069%=      5-min Rain = 0
KDO1 191047Z 35005KT 07/02 A2997 RMK A01 T00720020  RH  069%=      5-min Rain = 0
KDO1 191048Z 35006KT 07/02 A2997 RMK A01 T00720020  RH  069%=      5-min Rain = 0
KDO1 191049Z 35006KT 07/02 A2997 RMK A01 T00720020  RH  069%=      5-min Rain = 0
KDO1 191050Z 36006KT 07/02 A2997 RMK A01 T00710019  RH  069%=      5-min Rain = 0
KDO1 191051Z 00006KT 07/02 A2997 RMK A01 T00710020  RH  070%=      5-min Rain = 0
KDO1 191052Z 00006KT 07/02 A2997 RMK A01 T00700020  RH  070%=      5-min Rain = 0
KDO1 191053Z 00006KT 07/02 A2997 RMK A01 T00700019  RH  070%=      5-min Rain = 0
KDO1 191054Z 00006KT 07/02 A2997 RMK A01 T00710020  RH  070%=      5-min Rain = 0
KDO1 191055Z 36006KT 07/02 A2997 RMK A01 T00710020  RH  070%=      5-min Rain = 0
KDO1 191056Z 36006KT 07/02 A2997 RMK A01 T00710020  RH  070%=      5-min Rain = 0
KDO1 191057Z 36007KT 07/02 A2997 RMK A01 T00700019  RH  070%=      5-min Rain = 0
KDO1 191058Z 36006KT 07/02 A2997 RMK A01 T00700020  RH  070%=      5-min Rain = 0
KDO1 191059Z 35006KT 07/02 A2997 RMK A01 T00700019  RH  070%=      5-min Rain = 0
KDO1 191100Z 35007KT 07/02 A2997 RMK A01 T00700019  RH  070%=      5-min Rain = 0
KDO1 191101Z 35007KT 07/02 A2997 RMK A01 T00700019  RH  070%=      5-min Rain = 0
KDO1 191102Z 35006KT 07/02 A2997 RMK A01 T00700019  RH  070%=      5-min Rain = 0
KDO1 191103Z 35006KT 07/02 A2997 RMK A01 T00700019  RH  070%=      5-min Rain = 0
KDO1 191104Z 35006KT 07/02 A2997 RMK A01 T00690018  RH  070%=      5-min Rain = 0
KDO1 191105Z 35006KT 07/02 A2997 RMK A01 T00680018  RH  070%=      5-min Rain = 0
KDO1 191106Z 35006KT 07/02 A2997 RMK A01 T00690019  RH  071%=      5-min Rain = 0
KDO1 191107Z 35006KT 07/02 A2997 RMK A01 T00710020  RH  070%=      5-min Rain = 0
KDO1 191108Z 35006KT 07/02 A2997 RMK A01 T00740021  RH  069%=      5-min Rain = 0
KDO1 191109Z 35005KT 08/02 A2997 RMK A01 T00760021  RH  068%=      5-min Rain = 0
KDO1 191110Z 35005KT 08/02 A2997 RMK A01 T00760019  RH  067%=      5-min Rain = 0
KDO1 191111Z 34005KT 07/02 A2997 RMK A01 T00730015  RH  067%=      5-min Rain = 0
KDO1 191112Z 34003KT 07/01 A2997 RMK A01 T00670011  RH  068%=      5-min Rain = 0
KDO1 191113Z 35003KT 06/01 A2997 RMK A01 T00620012  RH  070%=      5-min Rain = 0
KDO1 191114Z 35003KT 06/01 A2997 RMK A01 T00610014  RH  072%=      5-min Rain = 0
KDO1 191115Z 00002KT 06/01 A2997 RMK A01 T00590014  RH  073%=      5-min Rain = 0
KDO1 191116Z 01002KT 06/02 A2996 RMK A01 T00600017  RH  074%=      5-min Rain = 0
KDO1 191117Z 01003KT 06/02 A2996 RMK A01 T00610018  RH  074%=      5-min Rain = 0
KDO1 191118Z 02002KT 06/02 A2996 RMK A01 T00630019  RH  073%=      5-min Rain = 0
KDO1 191119Z 02001KT 07/02 A2996 RMK A01 T00650019  RH  073%=      5-min Rain = 0
KDO1 191120Z 03001KT 07/02 A2996 RMK A01 T00660019  RH  072%=      5-min Rain = 0
KDO1 191121Z 01002KT 07/02 A2996 RMK A01 T00670019  RH  072%=      5-min Rain = 0
KDO1 191122Z 00002KT 07/02 A2996 RMK A01 T00670019  RH  071%=      5-min Rain = 0
KDO1 191123Z 01001KT 07/02 A2996 RMK A01 T00670018  RH  071%=      5-min Rain = 0
KDO1 191124Z 00002KT 07/02 A2996 RMK A01 T00670018  RH  071%=      5-min Rain = 0
KDO1 191125Z 35002KT 07/02 A2996 RMK A01 T00670018  RH  071%=      5-min Rain = 0
KDO1 191126Z 35002KT 07/02 A2996 RMK A01 T00670017  RH  071%=      5-min Rain = 0
KDO1 191127Z 35003KT 07/02 A2996 RMK A01 T00660017  RH  071%=      5-min Rain = 0
KDO1 191128Z 36002KT 07/02 A2996 RMK A01 T00650017  RH  071%=      5-min Rain = 0
KDO1 191129Z 36003KT 07/02 A2996 RMK A01 T00650018  RH  072%=      5-min Rain = 0
KDO1 191130Z 36003KT 06/02 A2996 RMK A01 T00640017  RH  072%=      5-min Rain = 0
KDO1 191131Z 00003KT 06/02 A2996 RMK A01 T00630016  RH  072%=      5-min Rain = 0
KDO1 191132Z 01003KT 06/02 A2996 RMK A01 T00620016  RH  072%=      5-min Rain = 0
KDO1 191133Z 01003KT 06/02 A2996 RMK A01 T00620016  RH  072%=      5-min Rain = 0
KDO1 191134Z 02003KT 06/02 A2996 RMK A01 T00620017  RH  073%=      5-min Rain = 0
KDO1 191135Z 02002KT 06/02 A2996 RMK A01 T00620017  RH  073%=      5-min Rain = 0
KDO1 191136Z 01003KT 06/02 A2996 RMK A01 T00620017  RH  073%=      5-min Rain = 0
KDO1 191137Z 01003KT 06/02 A2996 RMK A01 T00610017  RH  073%=      5-min Rain = 0
KDO1 191138Z 01003KT 06/02 A2996 RMK A01 T00610016  RH  073%=      5-min Rain = 0
KDO1 191139Z 01002KT 06/02 A2996 RMK A01 T00600016  RH  073%=      5-min Rain = 0
KDO1 191140Z 00003KT 06/02 A2996 RMK A01 T00610017  RH  073%=      5-min Rain = 0
KDO1 191141Z 36003KT 06/02 A2996 RMK A01 T00610017  RH  074%=      5-min Rain = 0
KDO1 191142Z 35003KT 06/02 A2996 RMK A01 T00600017  RH  074%=      5-min Rain = 0
KDO1 191143Z 35003KT 06/02 A2996 RMK A01 T00600017  RH  074%=      5-min Rain = 0
KDO1 191144Z 35003KT 06/02 A2996 RMK A01 T00600017  RH  074%=      5-min Rain = 0
KDO1 191145Z 36002KT 06/02 A2996 RMK A01 T00600017  RH  074%=      5-min Rain = 0
KDO1 191146Z 35001KT 06/02 A2996 RMK A01 T00600016  RH  074%=      5-min Rain = 0
KDO1 191147Z 36001KT 06/02 A2996 RMK A01 T00590016  RH  074%=      5-min Rain = 0
KDO1 191148Z 36001KT 06/02 A2996 RMK A01 T00590016  RH  074%=      5-min Rain = 0
KDO1 191149Z 00002KT 06/02 A2996 RMK A01 T00590016  RH  074%=      5-min Rain = 0
KDO1 191150Z 36002KT 06/02 A2996 RMK A01 T00590016  RH  074%=      5-min Rain = 0
KDO1 191151Z 36001KT 06/02 A2996 RMK A01 T00590015  RH  074%=      5-min Rain = 0
KDO1 191152Z 36001KT 06/02 A2996 RMK A01 T00590015  RH  074%=      5-min Rain = 0
KDO1 191153Z 00002KT 06/01 A2996 RMK A01 T00570014  RH  074%=      5-min Rain = 0
KDO1 191154Z 36002KT 06/01 A2996 RMK A01 T00570014  RH  074%=      5-min Rain = 0
KDO1 191155Z 00002KT 06/01 A2996 RMK A01 T00560014  RH  074%=      5-min Rain = 0
KDO1 191156Z 35002KT 06/01 A2996 RMK A01 T00550014  RH  075%=      5-min Rain = 0
KDO1 191157Z 00002KT 06/01 A2995 RMK A01 T00550014  RH  075%=      5-min Rain = 0
KDO1 191158Z 00002KT 06/01 A2995 RMK A01 T00550014  RH  075%=      5-min Rain = 0
KDO1 191159Z 00002KT 05/01 A2995 RMK A01 T00540014  RH  075%=      5-min Rain = 0
KDO1 191200Z 00002KT 05/01 A2995 RMK A01 T00540014  RH  075%=      5-min Rain = 0
KDO1 191201Z 00002KT 05/01 A2995 RMK A01 T00530014  RH  076%=      5-min Rain = 0
KDO1 191202Z 00001KT 05/01 A2995 RMK A01 T00530014  RH  076%=      5-min Rain = 0
KDO1 191203Z 00001KT 05/01 A2995 RMK A01 T00530014  RH  076%=      5-min Rain = 0
KDO1 191204Z 00001KT 05/01 A2995 RMK A01 T00530014  RH  076%=      5-min Rain = 0
KDO1 191205Z 01000KT 05/02 A2995 RMK A01 T00530015  RH  076%=      5-min Rain = 0
KDO1 191206Z 00000KT 05/02 A2995 RMK A01 T00530015  RH  076%=      5-min Rain = 0
KDO1 191207Z 00000KT 05/01 A2995 RMK A01 T00520014  RH  077%=      5-min Rain = 0
KDO1 191208Z 00000KT 05/01 A2996 RMK A01 T00520014  RH  077%=      5-min Rain = 0
KDO1 191209Z 00000KT 05/01 A2996 RMK A01 T00520014  RH  077%=      5-min Rain = 0
KDO1 191210Z 00000KT 05/01 A2996 RMK A01 T00520014  RH  077%=      5-min Rain = 0
KDO1 191211Z 00000KT 05/02 A2996 RMK A01 T00530015  RH  076%=      5-min Rain = 0
KDO1 191212Z 00000KT 05/02 A2996 RMK A01 T00530015  RH  076%=      5-min Rain = 0
KDO1 191213Z 21000KT 05/02 A2996 RMK A01 T00530015  RH  077%=      5-min Rain = 0
KDO1 191214Z 22001KT 05/02 A2996 RMK A01 T00540016  RH  076%=      5-min Rain = 0
KDO1 191215Z 22001KT 05/02 A2996 RMK A01 T00540015  RH  076%=      5-min Rain = 0
KDO1 191216Z 21002KT 05/02 A2996 RMK A01 T00540015  RH  076%=      5-min Rain = 0
KDO1 191217Z 22002KT 05/02 A2996 RMK A01 T00540015  RH  076%=      5-min Rain = 0
KDO1 191218Z 22002KT 05/02 A2996 RMK A01 T00530015  RH  076%=      5-min Rain = 0
KDO1 191219Z 21002KT 05/01 A2996 RMK A01 T00520014  RH  076%=      5-min Rain = 0
KDO1 191220Z 22002KT 05/01 A2996 RMK A01 T00520014  RH  077%=      5-min Rain = 0
KDO1 191221Z 23002KT 05/01 A2995 RMK A01 T00510014  RH  077%=      5-min Rain = 0
KDO1 191222Z 22001KT 05/01 A2995 RMK A01 T00510014  RH  077%=      5-min Rain = 0
KDO1 191223Z 22001KT 05/01 A2995 RMK A01 T00510014  RH  077%=      5-min Rain = 0
KDO1 191224Z 23001KT 05/01 A2995 RMK A01 T00500014  RH  077%=      5-min Rain = 0
KDO1 191225Z 23001KT 05/02 A2995 RMK A01 T00500015  RH  078%=      5-min Rain = 0
KDO1 191226Z 23001KT 05/02 A2995 RMK A01 T00510015  RH  078%=      5-min Rain = 0
KDO1 191227Z 23001KT 05/02 A2995 RMK A01 T00500015  RH  078%=      5-min Rain = 0
KDO1 191228Z 24001KT 05/02 A2995 RMK A01 T00500015  RH  078%=      5-min Rain = 0
KDO1 191229Z 24001KT 05/01 A2995 RMK A01 T00500014  RH  078%=      5-min Rain = 0
KDO1 191230Z 23002KT 05/02 A2996 RMK A01 T00500015  RH  078%=      5-min Rain = 0
KDO1 191231Z 22002KT 05/02 A2995 RMK A01 T00500015  RH  078%=      5-min Rain = 0
KDO1 191232Z 21002KT 05/02 A2996 RMK A01 T00510015  RH  078%=      5-min Rain = 0
KDO1 191233Z 21002KT 05/02 A2996 RMK A01 T00520016  RH  078%=      5-min Rain = 0
KDO1 191234Z 21002KT 05/02 A2996 RMK A01 T00510015  RH  077%=      5-min Rain = 0
KDO1 191235Z 21003KT 05/02 A2996 RMK A01 T00510015  RH  077%=      5-min Rain = 0
KDO1 191236Z 21004KT 05/02 A2996 RMK A01 T00520015  RH  077%=      5-min Rain = 0
KDO1 191237Z 21004KT 05/02 A2996 RMK A01 T00520015  RH  077%=      5-min Rain = 0
KDO1 191238Z 22004KT 05/02 A2996 RMK A01 T00520015  RH  077%=      5-min Rain = 0
KDO1 191239Z 22004KT 05/01 A2996 RMK A01 T00520014  RH  076%=      5-min Rain = 0
KDO1 191240Z 23004KT 05/02 A2996 RMK A01 T00520015  RH  077%=      5-min Rain = 0
KDO1 191241Z 23004KT 05/01 A2996 RMK A01 T00520014  RH  077%=      5-min Rain = 0
KDO1 191242Z 23004KT 05/01 A2996 RMK A01 T00510014  RH  077%=      5-min Rain = 0
KDO1 191243Z 23003KT 05/01 A2996 RMK A01 T00510014  RH  077%=      5-min Rain = 0
KDO1 191244Z 23003KT 05/01 A2996 RMK A01 T00510014  RH  077%=      5-min Rain = 0
KDO1 191245Z 23003KT 05/01 A2996 RMK A01 T00510014  RH  077%=      5-min Rain = 0
KDO1 191246Z 24002KT 05/01 A2996 RMK A01 T00510014  RH  077%=      5-min Rain = 0
KDO1 191247Z 24002KT 05/01 A2996 RMK A01 T00510014  RH  077%=      5-min Rain = 0
KDO1 191248Z 23002KT 05/01 A2996 RMK A01 T00510012  RH  076%=      5-min Rain = 0
KDO1 191249Z 23002KT 05/01 A2996 RMK A01 T00510012  RH  076%=      5-min Rain = 0
KDO1 191250Z 23001KT 05/01 A2995 RMK A01 T00510014  RH  077%=      5-min Rain = 0
KDO1 191251Z 23001KT 05/02 A2995 RMK A01 T00520015  RH  077%=      5-min Rain = 0
KDO1 191252Z 23000KT 05/02 A2995 RMK A01 T00540017  RH  077%=      5-min Rain = 0
KDO1 191253Z 00000KT 06/02 A2995 RMK A01 T00550017  RH  076%=      5-min Rain = 0
KDO1 191254Z 00000KT 06/02 A2995 RMK A01 T00560017  RH  076%=      5-min Rain = 0
KDO1 191255Z 00000KT 06/02 A2995 RMK A01 T00580018  RH  076%=      5-min Rain = 0
KDO1 191256Z 00000KT 06/02 A2995 RMK A01 T00580018  RH  075%=      5-min Rain = 0
KDO1 191257Z 00000KT 06/02 A2995 RMK A01 T00590017  RH  075%=      5-min Rain = 0
KDO1 191258Z 00000KT 06/02 A2995 RMK A01 T00590016  RH  074%=      5-min Rain = 0
KDO1 191259Z 00000KT 06/02 A2995 RMK A01 T00590017  RH  075%=      5-min Rain = 0
KDO1 191300Z 00000KT 06/02 A2995 RMK A01 T00580017  RH  075%=      5-min Rain = 0
KDO1 191301Z 00000KT 06/02 A2995 RMK A01 T00580017  RH  075%=      5-min Rain = 0
KDO1 191302Z 00000KT 06/02 A2995 RMK A01 T00570017  RH  075%=      5-min Rain = 0
KDO1 191303Z 00000KT 06/02 A2995 RMK A01 T00570016  RH  075%=      5-min Rain = 0
KDO1 191304Z 00000KT 06/02 A2995 RMK A01 T00560015  RH  075%=      5-min Rain = 0
KDO1 191305Z 00000KT 05/01 A2995 RMK A01 T00540013  RH  075%=      5-min Rain = 0
KDO1 191306Z 04000KT 05/01 A2995 RMK A01 T00520012  RH  075%=      5-min Rain = 0
KDO1 191307Z 04000KT 05/01 A2995 RMK A01 T00500011  RH  076%=      5-min Rain = 0
KDO1 191308Z 00000KT 05/01 A2995 RMK A01 T00490011  RH  076%=      5-min Rain = 0
KDO1 191309Z 00000KT 05/01 A2995 RMK A01 T00470011  RH  077%=      5-min Rain = 0
KDO1 191310Z 00000KT 05/01 A2995 RMK A01 T00460011  RH  078%=      5-min Rain = 0
KDO1 191311Z 00000KT 05/01 A2995 RMK A01 T00460010  RH  078%=      5-min Rain = 0
KDO1 191312Z 00000KT 05/01 A2995 RMK A01 T00450010  RH  078%=      5-min Rain = 0
KDO1 191313Z 03001KT 04/01 A2995 RMK A01 T00440010  RH  079%=      5-min Rain = 0
KDO1 191314Z 03001KT 04/01 A2995 RMK A01 T00440011  RH  079%=      5-min Rain = 0
KDO1 191315Z 03001KT 04/01 A2995 RMK A01 T00430011  RH  079%=      5-min Rain = 0
KDO1 191316Z 03002KT 04/01 A2995 RMK A01 T00430012  RH  080%=      5-min Rain = 0
KDO1 191317Z 03002KT 04/01 A2995 RMK A01 T00440012  RH  080%=      5-min Rain = 0
KDO1 191318Z 03002KT 05/01 A2995 RMK A01 T00450014  RH  080%=      5-min Rain = 0
KDO1 191319Z 03002KT 05/02 A2995 RMK A01 T00480015  RH  080%=      5-min Rain = 0
KDO1 191320Z 04002KT 05/02 A2995 RMK A01 T00500016  RH  079%=      5-min Rain = 0
KDO1 191321Z 03002KT 05/02 A2995 RMK A01 T00510016  RH  078%=      5-min Rain = 0
KDO1 191322Z 03002KT 05/02 A2995 RMK A01 T00520016  RH  077%=      5-min Rain = 0
KDO1 191323Z 03002KT 05/02 A2995 RMK A01 T00520015  RH  077%=      5-min Rain = 0
KDO1 191324Z 03002KT 05/01 A2995 RMK A01 T00520014  RH  077%=      5-min Rain = 0
KDO1 191325Z 03001KT 05/02 A2995 RMK A01 T00520015  RH  077%=      5-min Rain = 0
KDO1 191326Z 03002KT 05/01 A2995 RMK A01 T00520014  RH  076%=      5-min Rain = 0
KDO1 191327Z 03002KT 05/01 A2995 RMK A01 T00500013  RH  077%=      5-min Rain = 0
KDO1 191328Z 03002KT 05/01 A2995 RMK A01 T00500013  RH  077%=      5-min Rain = 0
KDO1 191329Z 03001KT 05/01 A2995 RMK A01 T00500014  RH  078%=      5-min Rain = 0
KDO1 191330Z 03002KT 05/01 A2995 RMK A01 T00490014  RH  078%=      5-min Rain = 0
KDO1 191331Z 03002KT 05/01 A2995 RMK A01 T00500014  RH  077%=      5-min Rain = 0
KDO1 191332Z 03002KT 05/01 A2995 RMK A01 T00500014  RH  077%=      5-min Rain = 0
KDO1 191333Z 04002KT 05/01 A2995 RMK A01 T00510014  RH  077%=      5-min Rain = 0
KDO1 191334Z 04001KT 05/01 A2995 RMK A01 T00510014  RH  077%=      5-min Rain = 0
KDO1 191335Z 04001KT 05/01 A2995 RMK A01 T00520014  RH  076%=      5-min Rain = 0
KDO1 191336Z 03001KT 05/01 A2995 RMK A01 T00510013  RH  077%=      5-min Rain = 0
KDO1 191337Z 03001KT 05/01 A2995 RMK A01 T00510014  RH  077%=      5-min Rain = 0
KDO1 191338Z 03001KT 05/02 A2995 RMK A01 T00510016  RH  078%=      5-min Rain = 0
KDO1 191339Z 02001KT 05/02 A2995 RMK A01 T00520017  RH  079%=      5-min Rain = 0
KDO1 191340Z 02001KT 05/02 A2995 RMK A01 T00530017  RH  078%=      5-min Rain = 0
KDO1 191341Z 03001KT 05/02 A2995 RMK A01 T00530017  RH  078%=      5-min Rain = 0
KDO1 191342Z 02001KT 05/02 A2995 RMK A01 T00540019  RH  078%=      5-min Rain = 0
KDO1 191343Z 03001KT 06/02 A2995 RMK A01 T00550019  RH  077%=      5-min Rain = 0
KDO1 191344Z 02001KT 06/02 A2995 RMK A01 T00560020  RH  078%=      5-min Rain = 0
KDO1 191345Z 03002KT 06/02 A2995 RMK A01 T00580022  RH  077%=      5-min Rain = 0
KDO1 191346Z 02002KT 06/02 A2995 RMK A01 T00610024  RH  077%=      5-min Rain = 0
KDO1 191347Z 02002KT 06/02 A2995 RMK A01 T00640024  RH  076%=      5-min Rain = 0
KDO1 191348Z 02002KT 07/02 A2995 RMK A01 T00670024  RH  074%=      5-min Rain = 0
KDO1 191349Z 02003KT 07/02 A2995 RMK A01 T00700024  RH  073%=      5-min Rain = 0
KDO1 191350Z 02002KT 07/02 A2995 RMK A01 T00710024  RH  072%=      5-min Rain = 0
KDO1 191351Z 01003KT 07/03 A2995 RMK A01 T00730025  RH  071%=      5-min Rain = 0
KDO1 191352Z 02003KT 07/03 A2995 RMK A01 T00740025  RH  071%=      5-min Rain = 0
KDO1 191353Z 02003KT 08/03 A2995 RMK A01 T00750025  RH  070%=      5-min Rain = 0
KDO1 191354Z 02003KT 08/03 A2995 RMK A01 T00760025  RH  070%=      5-min Rain = 0
KDO1 191355Z 02003KT 08/03 A2995 RMK A01 T00760025  RH  070%=      5-min Rain = 0
KDO1 191356Z 02003KT 08/03 A2995 RMK A01 T00770025  RH  069%=      5-min Rain = 0
KDO1 191357Z 02003KT 08/03 A2995 RMK A01 T00780025  RH  069%=      5-min Rain = 0
KDO1 191358Z 02004KT 08/03 A2995 RMK A01 T00790025  RH  069%=      5-min Rain = 0
KDO1 191359Z 02003KT 08/03 A2995 RMK A01 T00800025  RH  068%=      5-min Rain = 0
KDO1 191400Z 02004KT 08/03 A2995 RMK A01 T00810025  RH  068%=      5-min Rain = 0
KDO1 191401Z 02004KT 08/03 A2995 RMK A01 T00820025  RH  068%=      5-min Rain = 0
KDO1 191402Z 02004KT 08/03 A2995 RMK A01 T00830026  RH  067%=      5-min Rain = 0
KDO1 191403Z 01004KT 08/03 A2995 RMK A01 T00840026  RH  067%=      5-min Rain = 0
KDO1 191404Z 01004KT 09/03 A2995 RMK A01 T00850026  RH  066%=      5-min Rain = 0
KDO1 191405Z 02004KT 09/03 A2995 RMK A01 T00870027  RH  066%=      5-min Rain = 0
KDO1 191406Z 02004KT 09/03 A2995 RMK A01 T00880027  RH  066%=      5-min Rain = 0
KDO1 191407Z 02004KT 09/03 A2995 RMK A01 T00890028  RH  065%=      5-min Rain = 0
KDO1 191408Z 02004KT 09/03 A2995 RMK A01 T00910027  RH  064%=      5-min Rain = 0
KDO1 191409Z 02004KT 09/03 A2995 RMK A01 T00930028  RH  064%=      5-min Rain = 0
KDO1 191410Z 02004KT 09/03 A2995 RMK A01 T00940028  RH  063%=      5-min Rain = 0
KDO1 191411Z 02004KT 10/03 A2995 RMK A01 T00950029  RH  063%=      5-min Rain = 0
KDO1 191412Z 02005KT 10/03 A2995 RMK A01 T00960028  RH  063%=      5-min Rain = 0
KDO1 191413Z 02004KT 10/03 A2995 RMK A01 T00970028  RH  062%=      5-min Rain = 0
KDO1 191414Z 02004KT 10/03 A2995 RMK A01 T00980028  RH  062%=      5-min Rain = 0
KDO1 191415Z 02004KT 10/03 A2995 RMK A01 T00990029  RH  062%=      5-min Rain = 0
KDO1 191416Z 02004KT 10/03 A2995 RMK A01 T01010029  RH  061%=      5-min Rain = 0
KDO1 191417Z 02004KT 10/03 A2995 RMK A01 T01010029  RH  061%=      5-min Rain = 0
KDO1 191418Z 02005KT 10/03 A2995 RMK A01 T01020029  RH  061%=      5-min Rain = 0
KDO1 191419Z 02005KT 10/03 A2995 RMK A01 T01030030  RH  060%=      5-min Rain = 0
KDO1 191420Z 02005KT 10/03 A2995 RMK A01 T01040030  RH  060%=      5-min Rain = 0
KDO1 191421Z 02005KT 11/03 A2995 RMK A01 T01050030  RH  059%=      5-min Rain = 0
KDO1 191422Z 02005KT 11/03 A2995 RMK A01 T01060030  RH  059%=      5-min Rain = 0
KDO1 191423Z 02004KT 11/03 A2995 RMK A01 T01070030  RH  059%=      5-min Rain = 0
KDO1 191424Z 03004KT 11/03 A2995 RMK A01 T01080030  RH  059%=      5-min Rain = 0
KDO1 191425Z 03003KT 11/03 A2995 RMK A01 T01090031  RH  058%=      5-min Rain = 0
KDO1 191426Z 03003KT 11/03 A2995 RMK A01 T01100031  RH  058%=      5-min Rain = 0
KDO1 191427Z 02004KT 11/03 A2995 RMK A01 T01110030  RH  057%=      5-min Rain = 0
KDO1 191428Z 04003KT 11/03 A2995 RMK A01 T01110030  RH  057%=      5-min Rain = 0
KDO1 191429Z 02003KT 11/03 A2995 RMK A01 T01120031  RH  057%=      5-min Rain = 0
KDO1 191430Z 03003KT 11/03 A2995 RMK A01 T01130031  RH  057%=      5-min Rain = 0
KDO1 191431Z 04003KT 11/03 A2995 RMK A01 T01130031  RH  057%=      5-min Rain = 0
KDO1 191432Z 03003KT 11/03 A2995 RMK A01 T01140031  RH  057%=      5-min Rain = 0
KDO1 191433Z 03003KT 12/03 A2995 RMK A01 T01150031  RH  056%=      5-min Rain = 0
KDO1 191434Z 03003KT 12/03 A2995 RMK A01 T01160032  RH  056%=      5-min Rain = 0
KDO1 191435Z 04003KT 12/03 A2995 RMK A01 T01160031  RH  056%=      5-min Rain = 0
KDO1 191436Z 03003KT 12/03 A2995 RMK A01 T01170032  RH  056%=      5-min Rain = 0
KDO1 191437Z 02003KT 12/03 A2995 RMK A01 T01170033  RH  056%=      5-min Rain = 0
KDO1 191438Z 03003KT 12/03 A2996 RMK A01 T01180033  RH  056%=      5-min Rain = 0
KDO1 191439Z 05003KT 12/03 A2996 RMK A01 T01180033  RH  056%=      5-min Rain = 0
KDO1 191440Z 03003KT 12/03 A2995 RMK A01 T01200033  RH  055%=      5-min Rain = 0
KDO1 191441Z 03002KT 12/03 A2995 RMK A01 T01200033  RH  055%=      5-min Rain = 0
KDO1 191442Z 04003KT 12/03 A2995 RMK A01 T01210033  RH  055%=      5-min Rain = 0
KDO1 191443Z 04002KT 12/03 A2995 RMK A01 T01210033  RH  055%=      5-min Rain = 0
KDO1 191444Z 05002KT 12/03 A2995 RMK A01 T01230034  RH  055%=      5-min Rain = 0
KDO1 191445Z 04002KT 12/04 A2995 RMK A01 T01240035  RH  054%=      5-min Rain = 0
KDO1 191446Z 08001KT 13/03 A2995 RMK A01 T01250034  RH  054%=      5-min Rain = 0
KDO1 191447Z 10001KT 13/04 A2995 RMK A01 T01250035  RH  054%=      5-min Rain = 0
KDO1 191448Z 13000KT 13/04 A2996 RMK A01 T01270035  RH  054%=      5-min Rain = 0
KDO1 191449Z 06001KT 13/04 A2996 RMK A01 T01290035  RH  053%=      5-min Rain = 0
KDO1 191450Z 08001KT 13/04 A2996 RMK A01 T01310036  RH  052%=      5-min Rain = 0
KDO1 191451Z 11001KT 13/04 A2996 RMK A01 T01320036  RH  052%=      5-min Rain = 0
KDO1 191452Z 11002KT 13/04 A2996 RMK A01 T01330036  RH  052%=      5-min Rain = 0
KDO1 191453Z 10002KT 13/04 A2995 RMK A01 T01340036  RH  051%=      5-min Rain = 0
KDO1 191454Z 10002KT 14/04 A2996 RMK A01 T01350036  RH  051%=      5-min Rain = 0
KDO1 191455Z 10002KT 14/04 A2996 RMK A01 T01350036  RH  051%=      5-min Rain = 0
KDO1 191456Z 11002KT 14/04 A2996 RMK A01 T01360036  RH  051%=      5-min Rain = 0
KDO1 191457Z 11003KT 14/04 A2996 RMK A01 T01350036  RH  051%=      5-min Rain = 0
KDO1 191458Z 10003KT 14/04 A2996 RMK A01 T01350036  RH  051%=      5-min Rain = 0
KDO1 191459Z 11003KT 14/04 A2996 RMK A01 T01350036  RH  051%=      5-min Rain = 0
KDO1 191500Z 13003KT 14/04 A2996 RMK A01 T01350036  RH  051%=      5-min Rain = 0
KDO1 191501Z 12004KT 14/04 A2996 RMK A01 T01350036  RH  051%=      5-min Rain = 0
KDO1 191502Z 14003KT 14/04 A2996 RMK A01 T01350036  RH  051%=      5-min Rain = 0
KDO1 191503Z 14003KT 13/04 A2996 RMK A01 T01340036  RH  051%=      5-min Rain = 0
KDO1 191504Z 14003KT 13/04 A2996 RMK A01 T01340036  RH  051%=      5-min Rain = 0
KDO1 191505Z 14004KT 14/04 A2996 RMK A01 T01350036  RH  051%=      5-min Rain = 0
KDO1 191506Z 15004KT 13/04 A2996 RMK A01 T01340035  RH  051%=      5-min Rain = 0
KDO1 191507Z 15003KT 13/04 A2996 RMK A01 T01340036  RH  051%=      5-min Rain = 0
KDO1 191508Z 16003KT 13/04 A2996 RMK A01 T01340035  RH  051%=      5-min Rain = 0
KDO1 191509Z 15004KT 14/04 A2996 RMK A01 T01350037  RH  051%=      5-min Rain = 0
KDO1 191510Z 15004KT 14/04 A2995 RMK A01 T01350036  RH  051%=      5-min Rain = 0
KDO1 191511Z 15004KT 14/04 A2995 RMK A01 T01350036  RH  051%=      5-min Rain = 0
KDO1 191512Z 16003KT 14/04 A2995 RMK A01 T01350036  RH  051%=      5-min Rain = 0
KDO1 191513Z 16003KT 14/04 A2995 RMK A01 T01350037  RH  051%=      5-min Rain = 0
KDO1 191514Z 16004KT 13/04 A2995 RMK A01 T01340036  RH  051%=      5-min Rain = 0
KDO1 191515Z 18004KT 14/04 A2995 RMK A01 T01350036  RH  051%=      5-min Rain = 0
KDO1 191516Z 17004KT 14/04 A2995 RMK A01 T01350037  RH  052%=      5-min Rain = 0
KDO1 191517Z 17004KT 14/04 A2995 RMK A01 T01350037  RH  052%=      5-min Rain = 0
KDO1 191518Z 18004KT 14/04 A2995 RMK A01 T01350037  RH  051%=      5-min Rain = 0
KDO1 191519Z 19004KT 14/04 A2995 RMK A01 T01350036  RH  051%=      5-min Rain = 0
KDO1 191520Z 19003KT 14/04 A2995 RMK A01 T01350036  RH  051%=      5-min Rain = 0
KDO1 191521Z 19004KT 13/04 A2995 RMK A01 T01340036  RH  051%=      5-min Rain = 0
KDO1 191522Z 19004KT 13/04 A2995 RMK A01 T01340036  RH  051%=      5-min Rain = 0
KDO1 191523Z 20004KT 13/04 A2995 RMK A01 T01330035  RH  051%=      5-min Rain = 0
KDO1 191524Z 19004KT 13/04 A2995 RMK A01 T01320035  RH  052%=      5-min Rain = 0
KDO1 191525Z 19004KT 13/03 A2995 RMK A01 T01320034  RH  052%=      5-min Rain = 0
KDO1 191526Z 19004KT 13/03 A2995 RMK A01 T01320033  RH  051%=      5-min Rain = 0
KDO1 191527Z 19004KT 13/04 A2995 RMK A01 T01310035  RH  052%=      5-min Rain = 0
KDO1 191528Z 19004KT 13/04 A2995 RMK A01 T01320035  RH  052%=      5-min Rain = 0
KDO1 191529Z 19005KT 13/04 A2995 RMK A01 T01340035  RH  051%=      5-min Rain = 0
KDO1 191530Z 19006KT 13/03 A2995 RMK A01 T01340034  RH  051%=      5-min Rain = 0
KDO1 191531Z 18006KT 13/03 A2995 RMK A01 T01330034  RH  051%=      5-min Rain = 0
KDO1 191532Z 17006KT 13/03 A2995 RMK A01 T01340034  RH  051%=      5-min Rain = 0
KDO1 191533Z 17007KT 14/03 A2995 RMK A01 T01350034  RH  050%=      5-min Rain = 0
KDO1 191534Z 16006KT 14/03 A2995 RMK A01 T01360034  RH  050%=      5-min Rain = 0
KDO1 191535Z 16005KT 14/04 A2995 RMK A01 T01380035  RH  050%=      5-min Rain = 0
KDO1 191536Z 17005KT 14/04 A2995 RMK A01 T01400036  RH  049%=      5-min Rain = 0
KDO1 191537Z 16006KT 14/03 A2995 RMK A01 T01420034  RH  048%=      5-min Rain = 0
KDO1 191538Z 17004KT 14/03 A2995 RMK A01 T01420033  RH  048%=      5-min Rain = 0
KDO1 191539Z 17005KT 14/03 A2995 RMK A01 T01420034  RH  048%=      5-min Rain = 0
KDO1 191540Z 16005KT 14/03 A2995 RMK A01 T01420033  RH  048%=      5-min Rain = 0
KDO1 191541Z 15005KT 14/03 A2996 RMK A01 T01420033  RH  048%=      5-min Rain = 0
KDO1 191542Z 17005KT 14/03 A2996 RMK A01 T01420033  RH  048%=      5-min Rain = 0
KDO1 191543Z 17005KT 14/03 A2996 RMK A01 T01420033  RH  048%=      5-min Rain = 0
KDO1 191544Z 18007KT 14/03 A2996 RMK A01 T01430033  RH  048%=      5-min Rain = 0
KDO1 191545Z 17005KT 14/03 A2996 RMK A01 T01430034  RH  048%=      5-min Rain = 0
KDO1 191546Z 17004KT 14/03 A2996 RMK A01 T01440034  RH  048%=      5-min Rain = 0
KDO1 191547Z 17005KT 14/03 A2996 RMK A01 T01440033  RH  047%=      5-min Rain = 0
KDO1 191548Z 17005KT 15/03 A2996 RMK A01 T01450034  RH  047%=      5-min Rain = 0
KDO1 191549Z 19005KT 14/03 A2996 RMK A01 T01440034  RH  047%=      5-min Rain = 0
KDO1 191550Z 19004KT 14/03 A2996 RMK A01 T01440034  RH  048%=      5-min Rain = 0
KDO1 191551Z 19005KT 14/04 A2996 RMK A01 T01440035  RH  048%=      5-min Rain = 0
KDO1 191552Z 18004KT 14/03 A2996 RMK A01 T01440033  RH  047%=      5-min Rain = 0
KDO1 191553Z 17004KT 14/03 A2996 RMK A01 T01440034  RH  048%=      5-min Rain = 0
KDO1 191554Z 16005KT 14/03 A2996 RMK A01 T01430033  RH  047%=      5-min Rain = 0
KDO1 191555Z 15004KT 14/03 A2996 RMK A01 T01440033  RH  047%=      5-min Rain = 0
KDO1 191556Z 17003KT 15/03 A2996 RMK A01 T01450034  RH  047%=      5-min Rain = 0
KDO1 191557Z 20004KT 15/03 A2996 RMK A01 T01460034  RH  047%=      5-min Rain = 0
KDO1 191558Z 20003KT 15/03 A2996 RMK A01 T01460034  RH  047%=      5-min Rain = 0
KDO1 191559Z 19004KT 15/03 A2996 RMK A01 T01450034  RH  047%=      5-min Rain = 0
KDO1 191600Z 20003KT 14/03 A2996 RMK A01 T01440034  RH  048%=      5-min Rain = 0
KDO1 191601Z 20004KT 14/04 A2996 RMK A01 T01440035  RH  048%=      5-min Rain = 0
KDO1 191602Z 18003KT 15/04 A2996 RMK A01 T01450035  RH  047%=      5-min Rain = 0
KDO1 191603Z 21003KT 15/03 A2996 RMK A01 T01460034  RH  047%=      5-min Rain = 0
KDO1 191604Z 21004KT 15/04 A2996 RMK A01 T01470036  RH  047%=      5-min Rain = 0
KDO1 191605Z 21004KT 15/03 A2996 RMK A01 T01480034  RH  046%=      5-min Rain = 0
KDO1 191606Z 20003KT 15/04 A2996 RMK A01 T01480035  RH  047%=      5-min Rain = 0
KDO1 191607Z 19004KT 15/04 A2996 RMK A01 T01490035  RH  047%=      5-min Rain = 0
KDO1 191608Z 19003KT 15/04 A2996 RMK A01 T01510036  RH  046%=      5-min Rain = 0
KDO1 191609Z 18004KT 15/04 A2996 RMK A01 T01510035  RH  046%=      5-min Rain = 0
KDO1 191610Z 18002KT 15/04 A2996 RMK A01 T01510035  RH  046%=      5-min Rain = 0
KDO1 191611Z 16003KT 15/04 A2996 RMK A01 T01510035  RH  046%=      5-min Rain = 0
KDO1 191612Z 17002KT 15/04 A2996 RMK A01 T01530036  RH  045%=      5-min Rain = 0
KDO1 191613Z 16004KT 16/04 A2996 RMK A01 T01550036  RH  045%=      5-min Rain = 0
KDO1 191614Z 17003KT 16/04 A2996 RMK A01 T01570035  RH  044%=      5-min Rain = 0
KDO1 191615Z 15002KT 16/04 A2996 RMK A01 T01570036  RH  044%=      5-min Rain = 0
KDO1 191616Z 15002KT 16/04 A2996 RMK A01 T01590036  RH  044%=      5-min Rain = 0
KDO1 191617Z 14001KT 16/04 A2996 RMK A01 T01610037  RH  044%=      5-min Rain = 0
KDO1 191618Z 17001KT 16/04 A2996 RMK A01 T01620035  RH  043%=      5-min Rain = 0
KDO1 191619Z 12001KT 16/04 A2996 RMK A01 T01620036  RH  043%=      5-min Rain = 0
KDO1 191620Z 14004KT 16/04 A2995 RMK A01 T01630035  RH  042%=      5-min Rain = 0
KDO1 191621Z 15005KT 16/04 A2995 RMK A01 T01630036  RH  043%=      5-min Rain = 0
KDO1 191622Z 17003KT 16/04 A2995 RMK A01 T01640036  RH  042%=      5-min Rain = 0
KDO1 191623Z 19003KT 17/04 A2995 RMK A01 T01650036  RH  042%=      5-min Rain = 0
KDO1 191624Z 21003KT 16/04 A2995 RMK A01 T01640036  RH  042%=      5-min Rain = 0
KDO1 191625Z 20004KT 16/04 A2995 RMK A01 T01640036  RH  042%=      5-min Rain = 0
KDO1 191626Z 20003KT 16/04 A2995 RMK A01 T01640036  RH  042%=      5-min Rain = 0
KDO1 191627Z 20005KT 16/04 A2995 RMK A01 T01640036  RH  042%=      5-min Rain = 0
KDO1 191628Z 20005KT 16/04 A2995 RMK A01 T01630036  RH  043%=      5-min Rain = 0
KDO1 191629Z 20005KT 16/04 A2995 RMK A01 T01630036  RH  043%=      5-min Rain = 0
KDO1 191630Z 21004KT 16/04 A2995 RMK A01 T01640036  RH  042%=      5-min Rain = 0
KDO1 191631Z 22004KT 17/04 A2995 RMK A01 T01650036  RH  042%=      5-min Rain = 0
KDO1 191632Z 20005KT 17/04 A2995 RMK A01 T01650036  RH  042%=      5-min Rain = 0
KDO1 191633Z 20005KT 17/04 A2995 RMK A01 T01660037  RH  042%=      5-min Rain = 0
KDO1 191634Z 20005KT 17/04 A2995 RMK A01 T01660035  RH  042%=      5-min Rain = 0
KDO1 191635Z 21004KT 17/04 A2995 RMK A01 T01650036  RH  042%=      5-min Rain = 0
KDO1 191636Z 21004KT 17/04 A2995 RMK A01 T01650035  RH  042%=      5-min Rain = 0
KDO1 191637Z 21004KT 17/04 A2995 RMK A01 T01660036  RH  042%=      5-min Rain = 0
KDO1 191638Z 19004KT 17/04 A2995 RMK A01 T01670036  RH  042%=      5-min Rain = 0
KDO1 191639Z 18004KT 17/04 A2995 RMK A01 T01680036  RH  041%=      5-min Rain = 0
KDO1 191640Z 19004KT 17/04 A2995 RMK A01 T01690036  RH  041%=      5-min Rain = 0
KDO1 191641Z 20004KT 17/04 A2995 RMK A01 T01710036  RH  041%=      5-min Rain = 0
KDO1 191642Z 20002KT 17/04 A2995 RMK A01 T01720037  RH  041%=      5-min Rain = 0
KDO1 191643Z 20005KT 17/04 A2995 RMK A01 T01730036  RH  040%=      5-min Rain = 0
KDO1 191644Z 19004KT 17/04 A2995 RMK A01 T01720036  RH  040%=      5-min Rain = 0
KDO1 191645Z 20004KT 17/04 A2995 RMK A01 T01720037  RH  040%=      5-min Rain = 0
KDO1 191646Z 20004KT 17/04 A2995 RMK A01 T01730037  RH  040%=      5-min Rain = 0
KDO1 191647Z 20005KT 17/04 A2995 RMK A01 T01740037  RH  040%=      5-min Rain = 0
KDO1 191648Z 18004KT 18/04 A2995 RMK A01 T01750037  RH  040%=      5-min Rain = 0
KDO1 191649Z 20003KT 18/04 A2995 RMK A01 T01760038  RH  040%=      5-min Rain = 0
KDO1 191650Z 18004KT 18/04 A2995 RMK A01 T01780039  RH  039%=      5-min Rain = 0
KDO1 191651Z 21005KT 18/04 A2995 RMK A01 T01790038  RH  039%=      5-min Rain = 0
KDO1 191652Z 21005KT 18/04 A2995 RMK A01 T01800038  RH  039%=      5-min Rain = 0
KDO1 191653Z 19004KT 18/04 A2995 RMK A01 T01810039  RH  039%=      5-min Rain = 0
KDO1 191654Z 20005KT 18/04 A2995 RMK A01 T01840040  RH  038%=      5-min Rain = 0
KDO1 191655Z 21006KT 19/04 A2995 RMK A01 T01860040  RH  038%=      5-min Rain = 0
KDO1 191656Z 19005KT 19/04 A2995 RMK A01 T01860040  RH  038%=      5-min Rain = 0
KDO1 191657Z 17005KT 19/04 A2994 RMK A01 T01880040  RH  038%=      5-min Rain = 0
KDO1 191658Z 18003KT 19/04 A2994 RMK A01 T01910041  RH  037%=      5-min Rain = 0
KDO1 191659Z 18007KT 19/04 A2994 RMK A01 T01930039  RH  036%=      5-min Rain = 0
KDO1 191700Z 18007KT 19/04 A2994 RMK A01 T01940037  RH  035%=      5-min Rain = 0
KDO1 191701Z 17007KT 20/04 A2994 RMK A01 T01960036  RH  035%=      5-min Rain = 0
KDO1 191702Z 18007KT 20/04 A2994 RMK A01 T01970037  RH  035%=      5-min Rain = 0
KDO1 191703Z 16006KT 20/04 A2994 RMK A01 T01980037  RH  035%=      5-min Rain = 0
KDO1 191704Z 16006KT 20/04 A2994 RMK A01 T01990036  RH  034%=      5-min Rain = 0
KDO1 191705Z 15005KT 20/03 A2994 RMK A01 T02000034  RH  033%=      5-min Rain = 0
KDO1 191706Z 18006KT 20/03 A2994 RMK A01 T02010034  RH  033%=      5-min Rain = 0
KDO1 191707Z 19005KT 20/04 A2994 RMK A01 T02020037  RH  034%=      5-min Rain = 0
KDO1 191708Z 18005KT 20/04 A2994 RMK A01 T02040039  RH  034%=      5-min Rain = 0
KDO1 191709Z 19009KT 21/04 A2994 RMK A01 T02060037  RH  033%=      5-min Rain = 0
KDO1 191710Z 19009KT 21/03 A2994 RMK A01 T02060034  RH  032%=      5-min Rain = 0
KDO1 191711Z 18008KT 21/03 A2994 RMK A01 T02060032  RH  032%=      5-min Rain = 0
KDO1 191712Z 19007KT 21/03 A2994 RMK A01 T02050032  RH  032%=      5-min Rain = 0
KDO1 191713Z 19009KT 21/03 A2994 RMK A01 T02060031  RH  032%=      5-min Rain = 0
KDO1 191714Z 19012KT 21/03 A2994 RMK A01 T02070030  RH  031%=      5-min Rain = 0
KDO1 191715Z 18010KT 21/03 A2994 RMK A01 T02060029  RH  031%=      5-min Rain = 0
KDO1 191716Z 19011KT 21/03 A2994 RMK A01 T02060030  RH  031%=      5-min Rain = 0
KDO1 191717Z 19010KT 21/03 A2994 RMK A01 T02050029  RH  031%=      5-min Rain = 0
KDO1 191718Z 19009KT 20/03 A2994 RMK A01 T02030028  RH  031%=      5-min Rain = 0
KDO1 191719Z 18008KT 20/03 A2994 RMK A01 T02030029  RH  032%=      5-min Rain = 0
KDO1 191720Z 18008KT 21/03 A2994 RMK A01 T02060030  RH  031%=      5-min Rain = 0
KDO1 191721Z 17008KT 21/03 A2994 RMK A01 T02080030  RH  031%=      5-min Rain = 0
KDO1 191722Z 17009KT 21/03 A2994 RMK A01 T02100030  RH  030%=      5-min Rain = 0
KDO1 191723Z 17010KT 21/03 A2994 RMK A01 T02110029  RH  030%=      5-min Rain = 0
KDO1 191724Z 17011KT 21/03 A2994 RMK A01 T02110026  RH  029%=      5-min Rain = 0
KDO1 191725Z 17012KT 21/03 A2994 RMK A01 T02110025  RH  029%=      5-min Rain = 0
KDO1 191726Z 17012KT 21/03 A2994 RMK A01 T02110025  RH  029%=      5-min Rain = 0
KDO1 191727Z 16009KT 21/03 A2994 RMK A01 T02110025  RH  029%=      5-min Rain = 0
KDO1 191728Z 15009KT 21/03 A2993 RMK A01 T02100025  RH  030%=      5-min Rain = 0
KDO1 191729Z 18011KT 21/03 A2993 RMK A01 T02100026  RH  030%=      5-min Rain = 0
KDO1 191730Z 17011KT 21/03 A2993 RMK A01 T02100025  RH  029%=      5-min Rain = 0
KDO1 191731Z 18011KT 21/03 A2993 RMK A01 T02100026  RH  030%=      5-min Rain = 0
KDO1 191732Z 17014KT 21/03 A2993 RMK A01 T02100025  RH  029%=      5-min Rain = 0
KDO1 191733Z 16013KT 21/02 A2993 RMK A01 T02110024  RH  029%=      5-min Rain = 0
KDO1 191734Z 16010KT 21/02 A2993 RMK A01 T02100024  RH  029%=      5-min Rain = 0
KDO1 191735Z 16011KT 21/02 A2993 RMK A01 T02100024  RH  029%=      5-min Rain = 0
KDO1 191736Z 17011KT 21/02 A2993 RMK A01 T02110023  RH  029%=      5-min Rain = 0
KDO1 191737Z 17010KT 21/03 A2993 RMK A01 T02100025  RH  029%=      5-min Rain = 0
KDO1 191738Z 17011KT 21/02 A2993 RMK A01 T02110022  RH  029%=      5-min Rain = 0
KDO1 191739Z 16009G14KT 21/02 A2992 RMK A01 T02110023  RH  029%=      5-min Rain = 0
KDO1 191740Z 15011KT 21/02 A2992 RMK A01 T02130024  RH  029%=      5-min Rain = 0
KDO1 191741Z 15009KT 21/02 A2992 RMK A01 T02140023  RH  028%=      5-min Rain = 0
KDO1 191742Z 16011KT 22/03 A2992 RMK A01 T02150025  RH  029%=      5-min Rain = 0
KDO1 191743Z 16012KT 22/03 A2992 RMK A01 T02160025  RH  028%=      5-min Rain = 0
KDO1 191744Z 18010KT 22/02 A2992 RMK A01 T02160024  RH  028%=      5-min Rain = 0
KDO1 191745Z 15010KT 22/03 A2992 RMK A01 T02170025  RH  028%=      5-min Rain = 0
KDO1 191746Z 15012KT 22/02 A2992 RMK A01 T02170024  RH  028%=      5-min Rain = 0
KDO1 191747Z 17013KT 22/02 A2992 RMK A01 T02170024  RH  028%=      5-min Rain = 0
KDO1 191748Z 17015KT 22/02 A2992 RMK A01 T02180023  RH  028%=      5-min Rain = 0
KDO1 191749Z 16013KT 22/02 A2991 RMK A01 T02160023  RH  028%=      5-min Rain = 0
KDO1 191750Z 17015KT 22/02 A2991 RMK A01 T02160023  RH  028%=      5-min Rain = 0
KDO1 191751Z 16014KT 22/02 A2991 RMK A01 T02150023  RH  028%=      5-min Rain = 0
KDO1 191752Z 17013KT 22/02 A2991 RMK A01 T02160023  RH  028%=      5-min Rain = 0
KDO1 191753Z 17011KT 22/02 A2991 RMK A01 T02170023  RH  028%=      5-min Rain = 0
KDO1 191754Z 16010KT 22/02 A2991 RMK A01 T02190024  RH  028%=      5-min Rain = 0
KDO1 191755Z 17010KT 22/03 A2991 RMK A01 T02220025  RH  027%=      5-min Rain = 0
KDO1 191756Z 15013KT 23/02 A2991 RMK A01 T02260023  RH  026%=      5-min Rain = 0
KDO1 191757Z 16013KT 23/02 A2991 RMK A01 T02260022  RH  026%=      5-min Rain = 0
KDO1 191758Z 16011KT 22/02 A2991 RMK A01 T02240022  RH  026%=      5-min Rain = 0
KDO1 191759Z 17013KT 22/02 A299 RMK A01 T02230022  RH  027%=      5-min Rain = 0
KDO1 191800Z 16015KT 22/02 A299 RMK A01 T02220021  RH  027%=      5-min Rain = 0
KDO1 191801Z 16014KT 22/02 A299 RMK A01 T02210022  RH  027%=      5-min Rain = 0
KDO1 191802Z 15013KT 22/02 A299 RMK A01 T02230023  RH  027%=      5-min Rain = 0
KDO1 191803Z 15013KT 23/02 A299 RMK A01 T02250023  RH  026%=      5-min Rain = 0
KDO1 191804Z 15016G22KT 23/02 A299 RMK A01 T02270023  RH  026%=      5-min Rain = 0
KDO1 191805Z 15018KT 23/02 A299 RMK A01 T02260021  RH  026%=      5-min Rain = 0
KDO1 191806Z 15016KT 22/02 A299 RMK A01 T02230020  RH  026%=      5-min Rain = 0
KDO1 191807Z 16011KT 22/02 A299 RMK A01 T02210021  RH  027%=      5-min Rain = 0
KDO1 191808Z 15013KT 22/02 A299 RMK A01 T02220023  RH  027%=      5-min Rain = 0
KDO1 191809Z 15014KT 22/02 A299 RMK A01 T02230023  RH  027%=      5-min Rain = 0
KDO1 191810Z 15012KT 22/02 A299 RMK A01 T02230022  RH  027%=      5-min Rain = 0
KDO1 191811Z 14012G18KT 22/02 A299 RMK A01 T02230023  RH  027%=      5-min Rain = 0
KDO1 191812Z 15011KT 22/02 A299 RMK A01 T02240023  RH  027%=      5-min Rain = 0
KDO1 191813Z 15011G16KT 22/02 A299 RMK A01 T02230024  RH  027%=      5-min Rain = 0
KDO1 191814Z 14014KT 22/02 A299 RMK A01 T02230023  RH  027%=      5-min Rain = 0
KDO1 191815Z 15011KT 22/02 A299 RMK A01 T02230024  RH  027%=      5-min Rain = 0
KDO1 191816Z 15013KT 23/03 A299 RMK A01 T02250025  RH  027%=      5-min Rain = 0
KDO1 191817Z 16015KT 23/02 A299 RMK A01 T02260024  RH  026%=      5-min Rain = 0
KDO1 191818Z 16012KT 23/02 A299 RMK A01 T02250023  RH  027%=      5-min Rain = 0
KDO1 191819Z 16012G19KT 23/03 A299 RMK A01 T02260025  RH  027%=      5-min Rain = 0
KDO1 191820Z 15016KT 23/02 A299 RMK A01 T02270023  RH  026%=      5-min Rain = 0
KDO1 191821Z 15015KT 23/02 A299 RMK A01 T02250022  RH  026%=      5-min Rain = 0
KDO1 191822Z 17016KT 22/02 A299 RMK A01 T02230021  RH  026%=      5-min Rain = 0
KDO1 191823Z 16013KT 22/02 A2989 RMK A01 T02230022  RH  027%=      5-min Rain = 0
KDO1 191824Z 17012KT 22/02 A2989 RMK A01 T02230024  RH  027%=      5-min Rain = 0
KDO1 191825Z 16010G15KT 23/02 A2989 RMK A01 T02260024  RH  026%=      5-min Rain = 0
KDO1 191826Z 17013KT 23/02 A2989 RMK A01 T02290023  RH  026%=      5-min Rain = 0
KDO1 191827Z 16011KT 23/02 A2989 RMK A01 T02290023  RH  026%=      5-min Rain = 0
KDO1 191828Z 17016KT 23/02 A2989 RMK A01 T02290023  RH  026%=      5-min Rain = 0
KDO1 191829Z 17012KT 23/02 A2989 RMK A01 T02280021  RH  026%=      5-min Rain = 0
KDO1 191830Z 16010KT 23/02 A2989 RMK A01 T02260022  RH  026%=      5-min Rain = 0
KDO1 191831Z 17013KT 23/02 A2989 RMK A01 T02260022  RH  026%=      5-min Rain = 0
KDO1 191832Z 16014KT 23/02 A2989 RMK A01 T02270023  RH  026%=      5-min Rain = 0
KDO1 191833Z 16013KT 23/02 A2989 RMK A01 T02270023  RH  026%=      5-min Rain = 0
KDO1 191834Z 16013KT 23/02 A2989 RMK A01 T02280022  RH  026%=      5-min Rain = 0
KDO1 191835Z 16013KT 23/02 A2989 RMK A01 T02270023  RH  026%=      5-min Rain = 0
KDO1 191836Z 17011KT 23/02 A2989 RMK A01 T02270022  RH  026%=      5-min Rain = 0
KDO1 191837Z 17012KT 23/02 A2989 RMK A01 T02280023  RH  026%=      5-min Rain = 0
KDO1 191838Z 16012KT 23/02 A2989 RMK A01 T02280022  RH  026%=      5-min Rain = 0
KDO1 191839Z 16013G18KT 23/02 A2989 RMK A01 T02280022  RH  026%=      5-min Rain = 0
KDO1 191840Z 16014KT 23/02 A2988 RMK A01 T02280022  RH  026%=      5-min Rain = 0
KDO1 191841Z 16014KT 23/02 A2988 RMK A01 T02280022  RH  026%=      5-min Rain = 0
KDO1 191842Z 18014KT 23/02 A2988 RMK A01 T02270022  RH  026%=      5-min Rain = 0
KDO1 191843Z 19012KT 23/02 A2988 RMK A01 T02280022  RH  026%=      5-min Rain = 0
KDO1 191844Z 19012KT 23/02 A2988 RMK A01 T02280022  RH  026%=      5-min Rain = 0
KDO1 191845Z 18009KT 23/02 A2988 RMK A01 T02290024  RH  026%=      5-min Rain = 0
KDO1 191846Z 18011KT 23/03 A2988 RMK A01 T02320025  RH  026%=      5-min Rain = 0
KDO1 191847Z 16010KT 23/03 A2988 RMK A01 T02330025  RH  026%=      5-min Rain = 0
KDO1 191848Z 16010KT 23/02 A2988 RMK A01 T02330024  RH  025%=      5-min Rain = 0
KDO1 191849Z 15012KT 23/02 A2988 RMK A01 T02340024  RH  025%=      5-min Rain = 0
KDO1 191850Z 15010KT 23/02 A2988 RMK A01 T02340023  RH  025%=      5-min Rain = 0
KDO1 191851Z 16011KT 23/02 A2988 RMK A01 T02330023  RH  025%=      5-min Rain = 0
KDO1 191852Z 15014KT 23/02 A2988 RMK A01 T02330023  RH  025%=      5-min Rain = 0
KDO1 191853Z 15013KT 23/02 A2988 RMK A01 T02320022  RH  025%=      5-min Rain = 0
KDO1 191854Z 15013G18KT 23/02 A2988 RMK A01 T02310023  RH  025%=      5-min Rain = 0
KDO1 191855Z 15011KT 23/02 A2988 RMK A01 T02310023  RH  026%=      5-min Rain = 0
KDO1 191856Z 16013KT 23/02 A2987 RMK A01 T02310023  RH  025%=      5-min Rain = 0
KDO1 191857Z 16011KT 23/02 A2987 RMK A01 T02290022  RH  026%=      5-min Rain = 0
KDO1 191858Z 15011G18KT 23/02 A2987 RMK A01 T02290023  RH  026%=      5-min Rain = 0
KDO1 191859Z 15016KT 23/02 A2987 RMK A01 T02310023  RH  025%=      5-min Rain = 0
KDO1 191900Z 16015KT 23/02 A2987 RMK A01 T02310021  RH  025%=      5-min Rain = 0
KDO1 191901Z 17017KT 23/02 A2987 RMK A01 T02290021  RH  025%=      5-min Rain = 0
KDO1 191902Z 16014KT 23/02 A2987 RMK A01 T02300022  RH  025%=      5-min Rain = 0
KDO1 191903Z 16016KT 23/02 A2987 RMK A01 T02300021  RH  025%=      5-min Rain = 0
KDO1 191904Z 18013KT 23/02 A2987 RMK A01 T02290021  RH  026%=      5-min Rain = 0
KDO1 191905Z 18013KT 23/02 A2987 RMK A01 T02300022  RH  026%=      5-min Rain = 0
KDO1 191906Z 18013KT 23/02 A2987 RMK A01 T02320023  RH  025%=      5-min Rain = 0
KDO1 191907Z 18011KT 23/02 A2987 RMK A01 T02320023  RH  025%=      5-min Rain = 0
KDO1 191908Z 18012KT 23/02 A2987 RMK A01 T02320023  RH  025%=      5-min Rain = 0
KDO1 191909Z 18011KT 23/02 A2987 RMK A01 T02330023  RH  025%=      5-min Rain = 0
KDO1 191910Z 18012KT 24/02 A2987 RMK A01 T02350024  RH  025%=      5-min Rain = 0
KDO1 191911Z 17012G17KT 24/02 A2987 RMK A01 T02350023  RH  025%=      5-min Rain = 0
KDO1 191912Z 17012KT 24/02 A2987 RMK A01 T02350023  RH  025%=      5-min Rain = 0
KDO1 191913Z 16010KT 23/02 A2987 RMK A01 T02320023  RH  025%=      5-min Rain = 0
KDO1 191914Z 15013KT 23/02 A2987 RMK A01 T02320023  RH  025%=      5-min Rain = 0
KDO1 191915Z 15014KT 23/02 A2986 RMK A01 T02330023  RH  025%=      5-min Rain = 0
KDO1 191916Z 16014KT 23/02 A2986 RMK A01 T02330023  RH  025%=      5-min Rain = 0
KDO1 191917Z 16012KT 23/02 A2986 RMK A01 T02340023  RH  025%=      5-min Rain = 0
KDO1 191918Z 16010KT 23/02 A2986 RMK A01 T02340024  RH  025%=      5-min Rain = 0
KDO1 191919Z 17012KT 24/03 A2986 RMK A01 T02360025  RH  025%=      5-min Rain = 0
KDO1 191920Z 16012KT 24/02 A2986 RMK A01 T02360022  RH  025%=      5-min Rain = 0
KDO1 191921Z 17012KT 24/02 A2986 RMK A01 T02350023  RH  025%=      5-min Rain = 0
KDO1 191922Z 17014KT 24/02 A2986 RMK A01 T02350024  RH  025%=      5-min Rain = 0
KDO1 191923Z 16012KT 24/03 A2986 RMK A01 T02350025  RH  025%=      5-min Rain = 0
KDO1 191924Z 17012KT 24/03 A2986 RMK A01 T02370026  RH  025%=      5-min Rain = 0
KDO1 191925Z 16013KT 24/03 A2985 RMK A01 T02380026  RH  025%=      5-min Rain = 0
KDO1 191926Z 16015KT 24/03 A2985 RMK A01 T02380025  RH  025%=      5-min Rain = 0
KDO1 191927Z 16015KT 24/02 A2985 RMK A01 T02360024  RH  025%=      5-min Rain = 0
KDO1 191928Z 16013KT 24/02 A2985 RMK A01 T02360024  RH  025%=      5-min Rain = 0
KDO1 191929Z 16012KT 24/02 A2985 RMK A01 T02360024  RH  025%=      5-min Rain = 0
KDO1 191930Z 16012KT 24/02 A2985 RMK A01 T02380024  RH  025%=      5-min Rain = 0
KDO1 191931Z 15011G16KT 24/03 A2985 RMK A01 T02410026  RH  025%=      5-min Rain = 0
KDO1 191932Z 14016KT 25/02 A2985 RMK A01 T02450023  RH  024%=      5-min Rain = 0
KDO1 191933Z 15015KT 24/02 A2985 RMK A01 T02440021  RH  023%=      5-min Rain = 0
KDO1 191934Z 15015KT 24/02 A2984 RMK A01 T02420021  RH  024%=      5-min Rain = 0
KDO1 191935Z 15014KT 24/02 A2984 RMK A01 T02410020  RH  023%=      5-min Rain = 0
KDO1 191936Z 15015KT 24/02 A2984 RMK A01 T02400020  RH  024%=      5-min Rain = 0
KDO1 191937Z 16015KT 24/02 A2984 RMK A01 T02410019  RH  023%=      5-min Rain = 0
KDO1 191938Z 16016KT 24/02 A2984 RMK A01 T02410019  RH  023%=      5-min Rain = 0
KDO1 191939Z 15016KT 24/02 A2984 RMK A01 T02420019  RH  023%=      5-min Rain = 0
KDO1 191940Z 15015KT 24/02 A2984 RMK A01 T02410018  RH  023%=      5-min Rain = 0
KDO1 191941Z 16014KT 24/02 A2984 RMK A01 T02400019  RH  024%=      5-min Rain = 0
KDO1 191942Z 17013KT 24/02 A2984 RMK A01 T02410020  RH  024%=      5-min Rain = 0
KDO1 191943Z 16016G21KT 24/02 A2984 RMK A01 T02420021  RH  024%=      5-min Rain = 0
KDO1 191944Z 16014KT 24/02 A2984 RMK A01 T02440021  RH  023%=      5-min Rain = 0
KDO1 191945Z 16018KT 24/02 A2984 RMK A01 T02440019  RH  023%=      5-min Rain = 0
KDO1 191946Z 15015KT 24/02 A2984 RMK A01 T02390018  RH  023%=      5-min Rain = 0
KDO1 191947Z 15016KT 24/02 A2984 RMK A01 T02380018  RH  024%=      5-min Rain = 0
KDO1 191948Z 17016KT 24/02 A2984 RMK A01 T02390020  RH  024%=      5-min Rain = 0
KDO1 191949Z 18015KT 24/02 A2984 RMK A01 T02410019  RH  023%=      5-min Rain = 0
KDO1 191950Z 17015KT 24/02 A2984 RMK A01 T02410020  RH  023%=      5-min Rain = 0
KDO1 191951Z 16013KT 24/02 A2984 RMK A01 T02400020  RH  024%=      5-min Rain = 0
KDO1 191952Z 16018KT 24/02 A2984 RMK A01 T02410021  RH  024%=      5-min Rain = 0
KDO1 191953Z 16015KT 24/02 A2983 RMK A01 T02400020  RH  024%=      5-min Rain = 0
KDO1 191954Z 17015KT 24/02 A2983 RMK A01 T02390021  RH  024%=      5-min Rain = 0
KDO1 191955Z 17014KT 24/02 A2983 RMK A01 T02400021  RH  024%=      5-min Rain = 0
KDO1 191956Z 17014G19KT 24/02 A2983 RMK A01 T02420022  RH  024%=      5-min Rain = 0
KDO1 191957Z 16014G19KT 24/02 A2983 RMK A01 T02420020  RH  023%=      5-min Rain = 0
KDO1 191958Z 15015G20KT 24/02 A2983 RMK A01 T02420021  RH  024%=      5-min Rain = 0
KDO1 191959Z 15017KT 24/02 A2983 RMK A01 T02430021  RH  023%=      5-min Rain = 0
KDO1 192000Z 16013KT 24/02 A2983 RMK A01 T02420022  RH  024%=      5-min Rain = 0
KDO1 192001Z 16012KT 24/02 A2983 RMK A01 T02420022  RH  024%=      5-min Rain = 0
KDO1 192002Z 17015KT 24/02 A2983 RMK A01 T02420022  RH  024%=      5-min Rain = 0
KDO1 192003Z 17017KT 24/02 A2983 RMK A01 T02430022  RH  024%=      5-min Rain = 0
KDO1 192004Z 16014KT 24/02 A2983 RMK A01 T02430022  RH  024%=      5-min Rain = 0
KDO1 192005Z 16017G23KT 24/02 A2983 RMK A01 T02410022  RH  024%=      5-min Rain = 0
KDO1 192006Z 15015G22KT 24/02 A2983 RMK A01 T02420023  RH  024%=      5-min Rain = 0
KDO1 192007Z 16012KT 24/02 A2983 RMK A01 T02430024  RH  024%=      5-min Rain = 0
KDO1 192008Z 17013G20KT 25/03 A2983 RMK A01 T02470025  RH  024%=      5-min Rain = 0
KDO1 192009Z 16019G26KT 25/02 A2982 RMK A01 T02500024  RH  023%=      5-min Rain = 0
KDO1 192010Z 18016KT 25/02 A2983 RMK A01 T02480023  RH  023%=      5-min Rain = 0
KDO1 192011Z 18017KT 25/02 A2982 RMK A01 T02470021  RH  023%=      5-min Rain = 0
KDO1 192012Z 17014G19KT 25/02 A2982 RMK A01 T02450023  RH  023%=      5-min Rain = 0
KDO1 192013Z 17013KT 25/02 A2982 RMK A01 T02460024  RH  023%=      5-min Rain = 0
KDO1 192014Z 17016G21KT 25/03 A2982 RMK A01 T02480025  RH  023%=      5-min Rain = 0
KDO1 192015Z 17016KT 25/02 A2982 RMK A01 T02480024  RH  023%=      5-min Rain = 0
KDO1 192016Z 16010KT 25/02 A2982 RMK A01 T02460023  RH  023%=      5-min Rain = 0
KDO1 192017Z 17012G17KT 25/03 A2982 RMK A01 T02480025  RH  023%=      5-min Rain = 0
KDO1 192018Z 15016KT 25/03 A2982 RMK A01 T02500025  RH  023%=      5-min Rain = 0
KDO1 192019Z 16013KT 25/02 A2982 RMK A01 T02490024  RH  023%=      5-min Rain = 0
KDO1 192020Z 16015KT 25/02 A2982 RMK A01 T02480024  RH  023%=      5-min Rain = 0
KDO1 192021Z 16014KT 25/02 A2982 RMK A01 T02460022  RH  023%=      5-min Rain = 0
KDO1 192022Z 17012KT 25/02 A2982 RMK A01 T02470024  RH  023%=      5-min Rain = 0
KDO1 192023Z 18012KT 25/02 A2982 RMK A01 T02500024  RH  023%=      5-min Rain = 0
KDO1 192024Z 16015KT 25/02 A2982 RMK A01 T02520023  RH  022%=      5-min Rain = 0
KDO1 192025Z 16018KT 25/02 A2982 RMK A01 T02510022  RH  022%=      5-min Rain = 0
KDO1 192026Z 17018G23KT 25/02 A2981 RMK A01 T02480019  RH  023%=      5-min Rain = 0
KDO1 192027Z 16016KT 25/02 A2981 RMK A01 T02460020  RH  023%=      5-min Rain = 0
KDO1 192028Z 15015KT 25/02 A2981 RMK A01 T02460020  RH  023%=      5-min Rain = 0
KDO1 192029Z 16014KT 25/02 A2981 RMK A01 T02460020  RH  023%=      5-min Rain = 0
KDO1 192030Z 16017G22KT 25/02 A2981 RMK A01 T02470020  RH  023%=      5-min Rain = 0
KDO1 192031Z 17015G23KT 25/02 A2981 RMK A01 T02470020  RH  023%=      5-min Rain = 0
KDO1 192032Z 16015KT 25/02 A2981 RMK A01 T02470020  RH  023%=      5-min Rain = 0
KDO1 192033Z 16018KT 25/02 A2981 RMK A01 T02480020  RH  023%=      5-min Rain = 0
KDO1 192034Z 16018KT 25/02 A2981 RMK A01 T02480020  RH  023%=      5-min Rain = 0
KDO1 192035Z 17013KT 25/02 A2981 RMK A01 T02460020  RH  023%=      5-min Rain = 0
KDO1 192036Z 16015KT 25/02 A2981 RMK A01 T02480022  RH  023%=      5-min Rain = 0
KDO1 192037Z 15015KT 25/02 A2981 RMK A01 T02490022  RH  023%=      5-min Rain = 0
KDO1 192038Z 17017KT 25/02 A2981 RMK A01 T02490021  RH  023%=      5-min Rain = 0
KDO1 192039Z 17016G21KT 25/02 A2981 RMK A01 T02470021  RH  023%=      5-min Rain = 0
KDO1 192040Z 18019KT 25/02 A2982 RMK A01 T02470021  RH  023%=      5-min Rain = 0
KDO1 192041Z 18016KT 25/02 A2982 RMK A01 T02470021  RH  023%=      5-min Rain = 0
KDO1 192042Z 17017KT 25/02 A2982 RMK A01 T02460021  RH  023%=      5-min Rain = 0
KDO1 192043Z 17014G19KT 25/02 A2982 RMK A01 T02460022  RH  023%=      5-min Rain = 0
KDO1 192044Z 18016KT 25/02 A2982 RMK A01 T02460023  RH  023%=      5-min Rain = 0
KDO1 192045Z 17016KT 25/02 A2982 RMK A01 T02460024  RH  023%=      5-min Rain = 0
KDO1 192046Z 17016KT 25/02 A2982 RMK A01 T02460024  RH  023%=      5-min Rain = 0
KDO1 192047Z 17019KT 25/02 A2982 RMK A01 T02460024  RH  023%=      5-min Rain = 0
KDO1 192048Z 18017KT 25/02 A2982 RMK A01 T02460023  RH  023%=      5-min Rain = 0
KDO1 192049Z 18018KT 25/02 A2981 RMK A01 T02460024  RH  024%=      5-min Rain = 0
KDO1 192050Z 18016KT 25/02 A2982 RMK A01 T02460024  RH  024%=      5-min Rain = 0
KDO1 192051Z 18017KT 25/02 A2982 RMK A01 T02470024  RH  023%=      5-min Rain = 0
KDO1 192052Z 18014KT 25/03 A2981 RMK A01 T02470025  RH  023%=      5-min Rain = 0
KDO1 192053Z 18013KT 25/03 A2981 RMK A01 T02470025  RH  024%=      5-min Rain = 0
KDO1 192054Z 17016KT 25/03 A2981 RMK A01 T02480026  RH  024%=      5-min Rain = 0
KDO1 192055Z 17012KT 25/03 A2981 RMK A01 T02480026  RH  024%=      5-min Rain = 0
KDO1 192056Z 18017KT 25/03 A2981 RMK A01 T02500027  RH  023%=      5-min Rain = 0
KDO1 192057Z 17017G22KT 25/03 A2981 RMK A01 T02510026  RH  023%=      5-min Rain = 0
KDO1 192058Z 17017KT 25/03 A2981 RMK A01 T02500026  RH  023%=      5-min Rain = 0
KDO1 192059Z 18014G19KT 25/03 A2981 RMK A01 T02490027  RH  024%=      5-min Rain = 0
KDO1 192100Z 16014KT 25/03 A2981 RMK A01 T02490027  RH  024%=      5-min Rain = 0
KDO1 192101Z 16015KT 25/03 A2981 RMK A01 T02500027  RH  024%=      5-min Rain = 0
KDO1 192102Z 18015KT 25/03 A2981 RMK A01 T02490027  RH  024%=      5-min Rain = 0
KDO1 192103Z 18015KT 25/03 A2981 RMK A01 T02480028  RH  024%=      5-min Rain = 0
KDO1 192104Z 18015G20KT 25/03 A2981 RMK A01 T02500029  RH  024%=      5-min Rain = 0
KDO1 192105Z 18018KT 25/03 A2981 RMK A01 T02500028  RH  024%=      5-min Rain = 0
KDO1 192106Z 17015KT 25/03 A2981 RMK A01 T02490028  RH  024%=      5-min Rain = 0
KDO1 192107Z 18014G19KT 25/03 A2981 RMK A01 T02490028  RH  024%=      5-min Rain = 0
KDO1 192108Z 17016G21KT 25/03 A2981 RMK A01 T02490028  RH  024%=      5-min Rain = 0
KDO1 192109Z 17016KT 25/03 A2981 RMK A01 T02480028  RH  024%=      5-min Rain = 0
KDO1 192110Z 18016G21KT 25/03 A2981 RMK A01 T02470027  RH  024%=      5-min Rain = 0
KDO1 192111Z 18014KT 25/03 A2981 RMK A01 T02460026  RH  024%=      5-min Rain = 0
KDO1 192112Z 16014KT 25/03 A2981 RMK A01 T02460026  RH  024%=      5-min Rain = 0
KDO1 192113Z 16013G19KT 25/03 A2981 RMK A01 T02450027  RH  024%=      5-min Rain = 0
KDO1 192114Z 16014KT 25/03 A2981 RMK A01 T02450027  RH  024%=      5-min Rain = 0
KDO1 192115Z 16013KT 24/03 A298 RMK A01 T02440027  RH  024%=      5-min Rain = 0
KDO1 192116Z 17014G21KT 25/03 A298 RMK A01 T02450027  RH  024%=      5-min Rain = 0
KDO1 192117Z 17018KT 25/03 A298 RMK A01 T02450027  RH  024%=      5-min Rain = 0
KDO1 192118Z 17018G23KT 25/03 A298 RMK A01 T02460028  RH  024%=      5-min Rain = 0
KDO1 192119Z 17019KT 25/03 A298 RMK A01 T02460028  RH  024%=      5-min Rain = 0
KDO1 192120Z 17017G22KT 25/03 A298 RMK A01 T02470028  RH  024%=      5-min Rain = 0
KDO1 192121Z 17016KT 25/03 A298 RMK A01 T02460028  RH  024%=      5-min Rain = 0
KDO1 192122Z 17016G22KT 25/03 A298 RMK A01 T02470028  RH  024%=      5-min Rain = 0
KDO1 192123Z 18014KT 25/03 A298 RMK A01 T02480029  RH  024%=      5-min Rain = 0
KDO1 192124Z 17015KT 25/03 A298 RMK A01 T02490030  RH  024%=      5-min Rain = 0
KDO1 192125Z 16013KT 25/03 A298 RMK A01 T02500030  RH  024%=      5-min Rain = 0
KDO1 192126Z 15014KT 25/03 A298 RMK A01 T02500030  RH  024%=      5-min Rain = 0
KDO1 192127Z 15014KT 25/03 A298 RMK A01 T02500031  RH  024%=      5-min Rain = 0
KDO1 192128Z 16014KT 25/03 A298 RMK A01 T02500031  RH  024%=      5-min Rain = 0
KDO1 192129Z 17015KT 25/03 A298 RMK A01 T02500031  RH  024%=      5-min Rain = 0
KDO1 192130Z 16014KT 25/03 A298 RMK A01 T02500031  RH  024%=      5-min Rain = 0
KDO1 192131Z 17012KT 25/03 A298 RMK A01 T02490032  RH  024%=      5-min Rain = 0
KDO1 192132Z 16014G19KT 25/03 A298 RMK A01 T02490032  RH  024%=      5-min Rain = 0
KDO1 192133Z 17016KT 25/03 A298 RMK A01 T02490032  RH  024%=      5-min Rain = 0
KDO1 192134Z 16012KT 25/03 A298 RMK A01 T02490031  RH  024%=      5-min Rain = 0
KDO1 192135Z 16015G21KT 25/03 A298 RMK A01 T02500032  RH  024%=      5-min Rain = 0
KDO1 192136Z 16019KT 25/03 A298 RMK A01 T02500032  RH  024%=      5-min Rain = 0
KDO1 192137Z 16014G19KT 25/03 A298 RMK A01 T02490032  RH  024%=      5-min Rain = 0
KDO1 192138Z 15014KT 25/03 A298 RMK A01 T02480032  RH  025%=      5-min Rain = 0
KDO1 192139Z 15013KT 25/03 A298 RMK A01 T02490033  RH  024%=      5-min Rain = 0
KDO1 192140Z 16014G19KT 25/03 A298 RMK A01 T02500033  RH  024%=      5-min Rain = 0
KDO1 192141Z 16015KT 25/03 A298 RMK A01 T02500033  RH  024%=      5-min Rain = 0
KDO1 192142Z 16013G18KT 25/03 A298 RMK A01 T02500033  RH  024%=      5-min Rain = 0
KDO1 192143Z 15016KT 25/03 A298 RMK A01 T02500032  RH  024%=      5-min Rain = 0
KDO1 192144Z 14012KT 25/03 A2979 RMK A01 T02500031  RH  024%=      5-min Rain = 0
KDO1 192145Z 15015KT 25/03 A2979 RMK A01 T02510031  RH  024%=      5-min Rain = 0
KDO1 192146Z 16014G19KT 25/03 A2979 RMK A01 T02510031  RH  024%=      5-min Rain = 0
KDO1 192147Z 17011G16KT 25/03 A2979 RMK A01 T02520032  RH  024%=      5-min Rain = 0
KDO1 192148Z 17013KT 25/03 A2979 RMK A01 T02530032  RH  024%=      5-min Rain = 0
KDO1 192149Z 16012KT 25/03 A2979 RMK A01 T02530032  RH  024%=      5-min Rain = 0
KDO1 192150Z 16014KT 25/03 A2979 RMK A01 T02530032  RH  024%=      5-min Rain = 0
KDO1 192151Z 16014KT 25/03 A2979 RMK A01 T02530032  RH  024%=      5-min Rain = 0
KDO1 192152Z 16013KT 25/03 A2979 RMK A01 T02530031  RH  024%=      5-min Rain = 0
KDO1 192153Z 17014KT 25/03 A2979 RMK A01 T02520031  RH  024%=      5-min Rain = 0
KDO1 192154Z 17016KT 25/03 A2979 RMK A01 T02510031  RH  024%=      5-min Rain = 0
KDO1 192155Z 15016KT 25/03 A2979 RMK A01 T02510032  RH  024%=      5-min Rain = 0
KDO1 192156Z 16015G20KT 25/03 A2979 RMK A01 T02500032  RH  024%=      5-min Rain = 0
KDO1 192157Z 16012KT 25/03 A2979 RMK A01 T02500033  RH  024%=      5-min Rain = 0
KDO1 192158Z 15014KT 25/03 A2979 RMK A01 T02500033  RH  024%=      5-min Rain = 0
KDO1 192159Z 15014G19KT 25/03 A2979 RMK A01 T02500034  RH  025%=      5-min Rain = 0
KDO1 192200Z 16013KT 25/03 A2979 RMK A01 T02500034  RH  025%=      5-min Rain = 0
KDO1 192201Z 15012KT 25/03 A2979 RMK A01 T02490034  RH  025%=      5-min Rain = 0
KDO1 192202Z 15014G21KT 25/03 A2979 RMK A01 T02500034  RH  025%=      5-min Rain = 0
KDO1 192203Z 15015KT 25/03 A2979 RMK A01 T02500034  RH  025%=      5-min Rain = 0
KDO1 192204Z 15013KT 25/03 A2979 RMK A01 T02500034  RH  025%=      5-min Rain = 0
KDO1 192205Z 16016G21KT 25/03 A2979 RMK A01 T02500034  RH  025%=      5-min Rain = 0
KDO1 192206Z 15015G21KT 25/03 A2979 RMK A01 T02500033  RH  024%=      5-min Rain = 0
KDO1 192207Z 15018G23KT 25/03 A2979 RMK A01 T02500032  RH  024%=      5-min Rain = 0
KDO1 192208Z 15017KT 25/03 A2979 RMK A01 T02500032  RH  024%=      5-min Rain = 0
KDO1 192209Z 16017KT 25/03 A2979 RMK A01 T02500031  RH  024%=      5-min Rain = 0
KDO1 192210Z 16015KT 25/03 A2979 RMK A01 T02490031  RH  024%=      5-min Rain = 0
KDO1 192211Z 17016KT 25/03 A2978 RMK A01 T02490032  RH  024%=      5-min Rain = 0
KDO1 192212Z 16014KT 25/03 A2979 RMK A01 T02490032  RH  024%=      5-min Rain = 0
KDO1 192213Z 17014KT 25/03 A2979 RMK A01 T02490032  RH  024%=      5-min Rain = 0
KDO1 192214Z 16013KT 25/03 A2979 RMK A01 T02490032  RH  024%=      5-min Rain = 0
KDO1 192215Z 17015KT 25/03 A2979 RMK A01 T02500032  RH  024%=      5-min Rain = 0
KDO1 192216Z 17014G20KT 25/03 A2979 RMK A01 T02500032  RH  024%=      5-min Rain = 0
KDO1 192217Z 17014KT 25/03 A2979 RMK A01 T02500030  RH  024%=      5-min Rain = 0
KDO1 192218Z 15012G17KT 25/03 A2979 RMK A01 T02500031  RH  024%=      5-min Rain = 0
KDO1 192219Z 16015KT 25/03 A2979 RMK A01 T02500030  RH  024%=      5-min Rain = 0
KDO1 192220Z 16015G20KT 25/03 A2979 RMK A01 T02500029  RH  024%=      5-min Rain = 0
KDO1 192221Z 16014KT 25/03 A2979 RMK A01 T02500029  RH  024%=      5-min Rain = 0
KDO1 192222Z 16014KT 25/03 A2979 RMK A01 T02500029  RH  024%=      5-min Rain = 0
KDO1 192223Z 16017G22KT 25/03 A2979 RMK A01 T02500029  RH  024%=      5-min Rain = 0
KDO1 192224Z 16016KT 25/03 A2979 RMK A01 T02490028  RH  024%=      5-min Rain = 0
KDO1 192225Z 16015KT 25/03 A2979 RMK A01 T02490029  RH  024%=      5-min Rain = 0
KDO1 192226Z 16015KT 25/03 A2979 RMK A01 T02480029  RH  024%=      5-min Rain = 0
KDO1 192227Z 16015KT 25/03 A2979 RMK A01 T02480029  RH  024%=      5-min Rain = 0
KDO1 192228Z 17015KT 25/03 A2979 RMK A01 T02480029  RH  024%=      5-min Rain = 0
KDO1 192229Z 16014KT 25/03 A2979 RMK A01 T02480029  RH  024%=      5-min Rain = 0
KDO1 192230Z 16015KT 25/03 A2979 RMK A01 T02480029  RH  024%=      5-min Rain = 0
KDO1 192231Z 16016G21KT 25/03 A2979 RMK A01 T02470029  RH  024%=      5-min Rain = 0
KDO1 192232Z 17018G23KT 25/03 A2978 RMK A01 T02470029  RH  024%=      5-min Rain = 0
KDO1 192233Z 16017KT 25/03 A2978 RMK A01 T02470030  RH  024%=      5-min Rain = 0
KDO1 192234Z 16014KT 25/03 A2978 RMK A01 T02460029  RH  024%=      5-min Rain = 0
KDO1 192235Z 16017G22KT 25/03 A2978 RMK A01 T02460030  RH  024%=      5-min Rain = 0
KDO1 192236Z 16018KT 25/03 A2978 RMK A01 T02450030  RH  025%=      5-min Rain = 0
KDO1 192237Z 16017KT 24/03 A2978 RMK A01 T02440030  RH  025%=      5-min Rain = 0
KDO1 192238Z 16013KT 24/03 A2979 RMK A01 T02440031  RH  025%=      5-min Rain = 0
KDO1 192239Z 16012G18KT 24/03 A2978 RMK A01 T02430031  RH  025%=      5-min Rain = 0
KDO1 192240Z 16013KT 24/03 A2978 RMK A01 T02420031  RH  025%=      5-min Rain = 0
KDO1 192241Z 16014G19KT 24/03 A2978 RMK A01 T02410031  RH  025%=      5-min Rain = 0
KDO1 192242Z 16011G16KT 24/03 A2978 RMK A01 T02410031  RH  026%=      5-min Rain = 0
KDO1 192243Z 16017G22KT 24/03 A2978 RMK A01 T02400031  RH  026%=      5-min Rain = 0
KDO1 192244Z 16013G18KT 24/03 A2978 RMK A01 T02400032  RH  026%=      5-min Rain = 0
KDO1 192245Z 16014KT 24/03 A2978 RMK A01 T02400032  RH  026%=      5-min Rain = 0
KDO1 192246Z 17016KT 24/03 A2978 RMK A01 T02400033  RH  026%=      5-min Rain = 0
KDO1 192247Z 16018G23KT 24/03 A2978 RMK A01 T02400034  RH  026%=      5-min Rain = 0
KDO1 192248Z 16017KT 24/04 A2978 RMK A01 T02400035  RH  026%=      5-min Rain = 0
KDO1 192249Z 16017KT 24/04 A2978 RMK A01 T02400035  RH  026%=      5-min Rain = 0
KDO1 192250Z 16016KT 24/04 A2978 RMK A01 T02400035  RH  026%=      5-min Rain = 0
KDO1 192251Z 16013KT 24/04 A2978 RMK A01 T02400035  RH  026%=      5-min Rain = 0
KDO1 192252Z 15013KT 24/04 A2978 RMK A01 T02390035  RH  026%=      5-min Rain = 0
KDO1 192253Z 16013KT 24/04 A2978 RMK A01 T02380035  RH  027%=      5-min Rain = 0
KDO1 192254Z 16016KT 24/04 A2978 RMK A01 T02370035  RH  027%=      5-min Rain = 0
KDO1 192255Z 16012KT 24/04 A2978 RMK A01 T02370036  RH  027%=      5-min Rain = 0
KDO1 192256Z 16016KT 24/04 A2978 RMK A01 T02370036  RH  027%=      5-min Rain = 0
KDO1 192257Z 16012KT 24/04 A2978 RMK A01 T02370036  RH  027%=      5-min Rain = 0
KDO1 192258Z 16013KT 24/04 A2978 RMK A01 T02360037  RH  027%=      5-min Rain = 0
KDO1 192259Z 15013KT 24/04 A2978 RMK A01 T02350036  RH  027%=      5-min Rain = 0
KDO1 192300Z 16011KT 24/04 A2978 RMK A01 T02350036  RH  027%=      5-min Rain = 0
KDO1 192301Z 16010KT 23/04 A2978 RMK A01 T02340037  RH  028%=      5-min Rain = 0
KDO1 192302Z 15015KT 23/04 A2978 RMK A01 T02330037  RH  028%=      5-min Rain = 0
KDO1 192303Z 16014KT 23/04 A2978 RMK A01 T02330037  RH  028%=      5-min Rain = 0
KDO1 192304Z 16013KT 23/04 A2978 RMK A01 T02330038  RH  028%=      5-min Rain = 0
KDO1 192305Z 16011KT 23/04 A2978 RMK A01 T02330038  RH  028%=      5-min Rain = 0
KDO1 192306Z 15014KT 23/04 A2978 RMK A01 T02320038  RH  028%=      5-min Rain = 0
KDO1 192307Z 15013KT 23/04 A2978 RMK A01 T02320039  RH  028%=      5-min Rain = 0
KDO1 192308Z 16011KT 23/04 A2978 RMK A01 T02320039  RH  028%=      5-min Rain = 0
KDO1 192309Z 16013KT 23/04 A2978 RMK A01 T02320039  RH  028%=      5-min Rain = 0
KDO1 192310Z 15012KT 23/04 A2978 RMK A01 T02310039  RH  029%=      5-min Rain = 0
KDO1 192311Z 16010KT 23/04 A2979 RMK A01 T02300039  RH  029%=      5-min Rain = 0
KDO1 192312Z 16011KT 23/04 A2979 RMK A01 T02290039  RH  029%=      5-min Rain = 0
KDO1 192313Z 16011KT 23/04 A2979 RMK A01 T02280039  RH  029%=      5-min Rain = 0
KDO1 192314Z 16011KT 23/04 A2979 RMK A01 T02270039  RH  029%=      5-min Rain = 0
KDO1 192315Z 16012KT 23/04 A2979 RMK A01 T02270040  RH  030%=      5-min Rain = 0
KDO1 192316Z 16011KT 23/04 A2979 RMK A01 T02260040  RH  030%=      5-min Rain = 0
KDO1 192317Z 16010KT 23/04 A2979 RMK A01 T02260040  RH  030%=      5-min Rain = 0
KDO1 192318Z 15012KT 23/04 A2979 RMK A01 T02250040  RH  030%=      5-min Rain = 0
KDO1 192319Z 16010KT 23/04 A2979 RMK A01 T02250040  RH  030%=      5-min Rain = 0
KDO1 192320Z 15011KT 23/04 A2979 RMK A01 T02250040  RH  030%=      5-min Rain = 0
KDO1 192321Z 15011KT 22/04 A2979 RMK A01 T02240040  RH  030%=      5-min Rain = 0
KDO1 192322Z 16010KT 22/04 A2979 RMK A01 T02230040  RH  030%=      5-min Rain = 0
KDO1 192323Z 15010KT 22/04 A2979 RMK A01 T02230040  RH  030%=      5-min Rain = 0
KDO1 192324Z 15010KT 22/04 A2979 RMK A01 T02220040  RH  030%=      5-min Rain = 0
KDO1 192325Z 15011KT 22/04 A2979 RMK A01 T02210040  RH  031%=      5-min Rain = 0
KDO1 192326Z 15010KT 22/04 A2979 RMK A01 T02200040  RH  031%=      5-min Rain = 0
KDO1 192327Z 15010KT 22/04 A2979 RMK A01 T02200040  RH  031%=      5-min Rain = 0
KDO1 192328Z 15010KT 22/04 A2979 RMK A01 T02190039  RH  031%=      5-min Rain = 0
KDO1 192329Z 15009KT 22/04 A2979 RMK A01 T02180040  RH  031%=      5-min Rain = 0
KDO1 192330Z 15009KT 22/04 A2979 RMK A01 T02170039  RH  031%=      5-min Rain = 0
KDO1 192331Z 15009KT 22/04 A2979 RMK A01 T02170039  RH  031%=      5-min Rain = 0
KDO1 192332Z 15009KT 22/04 A2979 RMK A01 T02160040  RH  031%=      5-min Rain = 0
KDO1 192333Z 15010KT 22/04 A2979 RMK A01 T02150039  RH  032%=      5-min Rain = 0
KDO1 192334Z 15009KT 21/04 A2979 RMK A01 T02140039  RH  032%=      5-min Rain = 0
KDO1 192335Z 15009KT 21/04 A2979 RMK A01 T02130039  RH  032%=      5-min Rain = 0
KDO1 192336Z 15009KT 21/04 A2979 RMK A01 T02120039  RH  032%=      5-min Rain = 0
KDO1 192337Z 15010KT 21/04 A2979 RMK A01 T02110039  RH  032%=      5-min Rain = 0
KDO1 192338Z 15009KT 21/04 A2979 RMK A01 T02120039  RH  032%=      5-min Rain = 0
KDO1 192339Z 15008KT 21/04 A2979 RMK A01 T02110039  RH  032%=      5-min Rain = 0
KDO1 192340Z 15009KT 21/04 A2979 RMK A01 T02100039  RH  032%=      5-min Rain = 0
KDO1 192341Z 15009KT 21/04 A2979 RMK A01 T02090039  RH  033%=      5-min Rain = 0
KDO1 192342Z 15009KT 21/04 A2979 RMK A01 T02080038  RH  033%=      5-min Rain = 0
KDO1 192343Z 15009KT 21/04 A2979 RMK A01 T02070039  RH  033%=      5-min Rain = 0
KDO1 192344Z 15009KT 21/04 A2979 RMK A01 T02070039  RH  033%=      5-min Rain = 0
KDO1 192345Z 15010KT 21/04 A2979 RMK A01 T02060039  RH  033%=      5-min Rain = 0
KDO1 192346Z 15010KT 21/04 A2979 RMK A01 T02060039  RH  033%=      5-min Rain = 0
KDO1 192347Z 15009KT 21/04 A2979 RMK A01 T02060039  RH  033%=      5-min Rain = 0
KDO1 192348Z 15009KT 21/04 A2979 RMK A01 T02060039  RH  033%=      5-min Rain = 0
KDO1 192349Z 16009KT 21/04 A2979 RMK A01 T02050039  RH  033%=      5-min Rain = 0
KDO1 192350Z 15009KT 21/04 A2979 RMK A01 T02050039  RH  033%=      5-min Rain = 0
KDO1 192351Z 15008KT 20/04 A2979 RMK A01 T02040038  RH  034%=      5-min Rain = 0
KDO1 192352Z 15008KT 20/04 A2979 RMK A01 T02040039  RH  034%=      5-min Rain = 0
KDO1 192353Z 15009KT 20/04 A2979 RMK A01 T02030039  RH  034%=      5-min Rain = 0
KDO1 192354Z 15009KT 20/04 A2979 RMK A01 T02030039  RH  034%=      5-min Rain = 0
KDO1 192355Z 15009KT 20/04 A2979 RMK A01 T02020038  RH  034%=      5-min Rain = 0
KDO1 192356Z 16009KT 20/04 A2979 RMK A01 T02020039  RH  034%=      5-min Rain = 0
KDO1 192357Z 15009KT 20/04 A2979 RMK A01 T02020039  RH  034%=      5-min Rain = 0
KDO1 192358Z 15009KT 20/04 A2979 RMK A01 T02020039  RH  034%=      5-min Rain = 0
KDO1 192359Z 15009KT 20/04 A2979 RMK A01 T02020039  RH  034%=      5-min Rain = 0
KDO1 200000Z 15008KT 20/04 A2979 RMK A01 T02010039  RH  034%=      5-min Rain = 0
KDO1 200001Z 15009KT 20/04 A2979 RMK A01 T02010039  RH  034%=      5-min Rain = 0
KDO1 200002Z 15009KT 20/04 A2979 RMK A01 T02010039  RH  034%=      5-min Rain = 0
KDO1 200003Z 15009KT 20/04 A2979 RMK A01 T02000039  RH  034%=      5-min Rain = 0
KDO1 200004Z 15009KT 20/04 A2979 RMK A01 T01990039  RH  035%=      5-min Rain = 0
KDO1 200005Z 15009KT 20/04 A2979 RMK A01 T01990039  RH  035%=      5-min Rain = 0
KDO1 200006Z 15008KT 20/04 A2979 RMK A01 T01980039  RH  035%=      5-min Rain = 0
KDO1 200007Z 15009KT 20/04 A2979 RMK A01 T01980039  RH  035%=      5-min Rain = 0
KDO1 200008Z 15008KT 20/04 A2979 RMK A01 T01980040  RH  035%=      5-min Rain = 0
KDO1 200009Z 15008KT 20/04 A298 RMK A01 T01970039  RH  035%=      5-min Rain = 0
KDO1 200010Z 15009KT 20/04 A298 RMK A01 T01960040  RH  036%=      5-min Rain = 0
KDO1 200011Z 15009KT 20/04 A298 RMK A01 T01960040  RH  036%=      5-min Rain = 0
KDO1 200012Z 15009KT 20/04 A298 RMK A01 T01960040  RH  036%=      5-min Rain = 0
KDO1 200013Z 15009KT 20/04 A298 RMK A01 T01960041  RH  036%=      5-min Rain = 0
KDO1 200014Z 16008KT 20/04 A298 RMK A01 T01960041  RH  036%=      5-min Rain = 0
KDO1 200015Z 15009KT 20/04 A298 RMK A01 T01960041  RH  036%=      5-min Rain = 0
KDO1 200016Z 15009KT 20/04 A298 RMK A01 T01950041  RH  036%=      5-min Rain = 0
KDO1 200017Z 15009KT 19/04 A298 RMK A01 T01940041  RH  036%=      5-min Rain = 0
KDO1 200018Z 15008KT 19/04 A298 RMK A01 T01940041  RH  036%=      5-min Rain = 0
KDO1 200019Z 15009KT 19/04 A298 RMK A01 T01930041  RH  037%=      5-min Rain = 0
KDO1 200020Z 15009KT 19/04 A298 RMK A01 T01930041  RH  037%=      5-min Rain = 0
KDO1 200021Z 15009KT 19/04 A298 RMK A01 T01930041  RH  037%=      5-min Rain = 0
KDO1 200022Z 15008KT 19/04 A298 RMK A01 T01930042  RH  037%=      5-min Rain = 0
KDO1 200023Z 15008KT 19/04 A298 RMK A01 T01920041  RH  037%=      5-min Rain = 0
KDO1 200024Z 15008KT 19/04 A298 RMK A01 T01910042  RH  037%=      5-min Rain = 0
KDO1 200025Z 15008KT 19/04 A298 RMK A01 T01910042  RH  037%=      5-min Rain = 0
KDO1 200026Z 15009KT 19/04 A298 RMK A01 T01900042  RH  037%=      5-min Rain = 0
KDO1 200027Z 15009KT 19/04 A298 RMK A01 T01900042  RH  038%=      5-min Rain = 0
KDO1 200028Z 15009KT 19/04 A298 RMK A01 T01900042  RH  038%=      5-min Rain = 0
KDO1 200029Z 15009KT 19/04 A298 RMK A01 T01890042  RH  038%=      5-min Rain = 0
KDO1 200030Z 15009KT 19/04 A298 RMK A01 T01890043  RH  038%=      5-min Rain = 0
KDO1 200031Z 15009KT 19/04 A298 RMK A01 T01890043  RH  038%=      5-min Rain = 0
KDO1 200032Z 15009KT 19/04 A298 RMK A01 T01880042  RH  038%=      5-min Rain = 0
KDO1 200033Z 15009KT 19/04 A298 RMK A01 T01870043  RH  038%=      5-min Rain = 0
KDO1 200034Z 15008KT 19/04 A298 RMK A01 T01870043  RH  039%=      5-min Rain = 0
KDO1 200035Z 15008KT 19/04 A298 RMK A01 T01860043  RH  039%=      5-min Rain = 0
KDO1 200036Z 15009KT 19/04 A2981 RMK A01 T01860043  RH  039%=      5-min Rain = 0
KDO1 200037Z 15008KT 19/04 A2981 RMK A01 T01850043  RH  039%=      5-min Rain = 0
KDO1 200038Z 15008KT 18/04 A2981 RMK A01 T01840043  RH  039%=      5-min Rain = 0
KDO1 200039Z 15008KT 18/04 A2981 RMK A01 T01840044  RH  040%=      5-min Rain = 0
KDO1 200040Z 15008KT 18/04 A2981 RMK A01 T01830044  RH  040%=      5-min Rain = 0
KDO1 200041Z 15008KT 18/05 A2981 RMK A01 T01830045  RH  040%=      5-min Rain = 0
KDO1 200042Z 15007KT 18/04 A2981 RMK A01 T01830044  RH  040%=      5-min Rain = 0
KDO1 200043Z 15007KT 18/04 A2981 RMK A01 T01820044  RH  040%=      5-min Rain = 0
KDO1 200044Z 14007KT 18/04 A2981 RMK A01 T01810044  RH  040%=      5-min Rain = 0
KDO1 200045Z 14007KT 18/05 A2981 RMK A01 T01810045  RH  040%=      5-min Rain = 0
KDO1 200046Z 14007KT 18/05 A2981 RMK A01 T01800045  RH  041%=      5-min Rain = 0
KDO1 200047Z 15007KT 18/05 A2981 RMK A01 T01800045  RH  041%=      5-min Rain = 0
KDO1 200048Z 14007KT 18/05 A2981 RMK A01 T01790045  RH  041%=      5-min Rain = 0
KDO1 200049Z 15008KT 18/05 A2981 RMK A01 T01790045  RH  041%=      5-min Rain = 0
KDO1 200050Z 15007KT 18/05 A2981 RMK A01 T01790046  RH  041%=      5-min Rain = 0
KDO1 200051Z 14007KT 18/05 A298 RMK A01 T01790046  RH  041%=      5-min Rain = 0
KDO1 200052Z 14008KT 18/05 A298 RMK A01 T01790046  RH  041%=      5-min Rain = 0
KDO1 200053Z 14008KT 18/05 A298 RMK A01 T01790046  RH  041%=      5-min Rain = 0
KDO1 200054Z 14007KT 18/05 A298 RMK A01 T01790046  RH  041%=      5-min Rain = 0
KDO1 200055Z 14008KT 18/05 A298 RMK A01 T01790046  RH  041%=      5-min Rain = 0
KDO1 200056Z 15008KT 18/05 A2981 RMK A01 T01790047  RH  042%=      5-min Rain = 0
KDO1 200057Z 14007KT 18/05 A2981 RMK A01 T01790047  RH  042%=      5-min Rain = 0
KDO1 200058Z 15007KT 18/05 A2981 RMK A01 T01790047  RH  042%=      5-min Rain = 0
KDO1 200059Z 15007KT 18/05 A2981 RMK A01 T01790047  RH  042%=      5-min Rain = 0
KDO1 200100Z 14008KT 18/05 A2981 RMK A01 T01780048  RH  042%=      5-min Rain = 0
KDO1 200101Z 14006KT 18/05 A2981 RMK A01 T01780048  RH  042%=      5-min Rain = 0
KDO1 200102Z 14006KT 18/05 A2981 RMK A01 T01780048  RH  042%=      5-min Rain = 0
KDO1 200103Z 14006KT 18/05 A2981 RMK A01 T01780048  RH  042%=      5-min Rain = 0
KDO1 200104Z 14007KT 18/05 A2981 RMK A01 T01770048  RH  042%=      5-min Rain = 0
KDO1 200105Z 14008KT 18/05 A2981 RMK A01 T01760048  RH  043%=      5-min Rain = 0
KDO1 200106Z 15007KT 18/05 A2981 RMK A01 T01760048  RH  043%=      5-min Rain = 0
KDO1 200107Z 14007KT 18/05 A2981 RMK A01 T01760048  RH  043%=      5-min Rain = 0
KDO1 200108Z 14007KT 18/05 A2981 RMK A01 T01750048  RH  043%=      5-min Rain = 0
KDO1 200109Z 14007KT 17/05 A2981 RMK A01 T01740048  RH  043%=      5-min Rain = 0
KDO1 200110Z 14007KT 17/05 A2981 RMK A01 T01740048  RH  043%=      5-min Rain = 0
KDO1 200111Z 14007KT 17/05 A2981 RMK A01 T01730049  RH  044%=      5-min Rain = 0
KDO1 200112Z 14007KT 17/05 A2981 RMK A01 T01730049  RH  044%=      5-min Rain = 0
KDO1 200113Z 14007KT 17/05 A2981 RMK A01 T01730049  RH  044%=      5-min Rain = 0
KDO1 200114Z 14007KT 17/05 A2981 RMK A01 T01730050  RH  044%=      5-min Rain = 0
KDO1 200115Z 14007KT 17/05 A2982 RMK A01 T01730049  RH  044%=      5-min Rain = 0
KDO1 200116Z 14007KT 17/05 A2982 RMK A01 T01720049  RH  044%=      5-min Rain = 0
KDO1 200117Z 14007KT 17/05 A2982 RMK A01 T01720050  RH  045%=      5-min Rain = 0
KDO1 200118Z 14008KT 17/05 A2981 RMK A01 T01710050  RH  045%=      5-min Rain = 0
KDO1 200119Z 14008KT 17/05 A2981 RMK A01 T01710050  RH  045%=      5-min Rain = 0
KDO1 200120Z 14008KT 17/05 A2981 RMK A01 T01710050  RH  045%=      5-min Rain = 0
KDO1 200121Z 14008KT 17/05 A2981 RMK A01 T01700050  RH  045%=      5-min Rain = 0
KDO1 200122Z 14008KT 17/05 A2981 RMK A01 T01700051  RH  045%=      5-min Rain = 0
KDO1 200123Z 14007KT 17/05 A2981 RMK A01 T01690050  RH  045%=      5-min Rain = 0
KDO1 200124Z 14007KT 17/05 A2981 RMK A01 T01690051  RH  046%=      5-min Rain = 0
KDO1 200125Z 14007KT 17/05 A2981 RMK A01 T01680051  RH  046%=      5-min Rain = 0
KDO1 200126Z 14007KT 17/05 A2981 RMK A01 T01680051  RH  046%=      5-min Rain = 0
KDO1 200127Z 14007KT 17/05 A2981 RMK A01 T01680051  RH  046%=      5-min Rain = 0
KDO1 200128Z 14007KT 17/05 A2981 RMK A01 T01680051  RH  046%=      5-min Rain = 0
KDO1 200129Z 14007KT 17/05 A2981 RMK A01 T01680052  RH  046%=      5-min Rain = 0
KDO1 200130Z 14007KT 17/05 A2981 RMK A01 T01670052  RH  046%=      5-min Rain = 0
KDO1 200131Z 14008KT 17/05 A2981 RMK A01 T01680052  RH  047%=      5-min Rain = 0
KDO1 200132Z 14007KT 17/05 A2981 RMK A01 T01670052  RH  046%=      5-min Rain = 0
KDO1 200133Z 14007KT 17/05 A2981 RMK A01 T01670052  RH  047%=      5-min Rain = 0
KDO1 200134Z 14007KT 17/05 A2981 RMK A01 T01670053  RH  047%=      5-min Rain = 0
KDO1 200135Z 14008KT 17/05 A2981 RMK A01 T01670053  RH  047%=      5-min Rain = 0
KDO1 200136Z 14008KT 17/05 A2981 RMK A01 T01670053  RH  047%=      5-min Rain = 0
KDO1 200137Z 14008KT 17/05 A2981 RMK A01 T01670053  RH  047%=      5-min Rain = 0
KDO1 200138Z 14007KT 17/05 A2981 RMK A01 T01670053  RH  047%=      5-min Rain = 0
KDO1 200139Z 14008KT 17/05 A2981 RMK A01 T01680053  RH  047%=      5-min Rain = 0
KDO1 200140Z 14009KT 17/05 A2981 RMK A01 T01670053  RH  047%=      5-min Rain = 0
KDO1 200141Z 14008KT 17/05 A2981 RMK A01 T01670053  RH  047%=      5-min Rain = 0
KDO1 200142Z 14008KT 17/05 A2981 RMK A01 T01670053  RH  047%=      5-min Rain = 0
KDO1 200143Z 15009KT 17/05 A2981 RMK A01 T01670054  RH  047%=      5-min Rain = 0
KDO1 200144Z 15009KT 17/05 A2981 RMK A01 T01670054  RH  047%=      5-min Rain = 0
KDO1 200145Z 15009KT 17/05 A2981 RMK A01 T01680054  RH  047%=      5-min Rain = 0
KDO1 200146Z 15010KT 17/06 A2981 RMK A01 T01690055  RH  047%=      5-min Rain = 0
KDO1 200147Z 14009KT 17/06 A2981 RMK A01 T01700055  RH  047%=      5-min Rain = 0
KDO1 200148Z 15009KT 17/06 A2981 RMK A01 T01700055  RH  046%=      5-min Rain = 0
KDO1 200149Z 15009KT 17/06 A2981 RMK A01 T01710055  RH  046%=      5-min Rain = 0
KDO1 200150Z 15009KT 17/06 A2981 RMK A01 T01710055  RH  046%=      5-min Rain = 0
KDO1 200151Z 15009KT 17/06 A2981 RMK A01 T01710055  RH  046%=      5-min Rain = 0
KDO1 200152Z 15010KT 17/06 A2981 RMK A01 T01710055  RH  046%=      5-min Rain = 0
KDO1 200153Z 15008KT 17/05 A2981 RMK A01 T01720054  RH  046%=      5-min Rain = 0
KDO1 200154Z 15009KT 17/05 A2981 RMK A01 T01720054  RH  046%=      5-min Rain = 0
KDO1 200155Z 14008KT 17/05 A2981 RMK A01 T01720054  RH  046%=      5-min Rain = 0
KDO1 200156Z 14009KT 17/05 A2981 RMK A01 T01720054  RH  046%=      5-min Rain = 0
KDO1 200157Z 14008KT 17/05 A2981 RMK A01 T01720053  RH  045%=      5-min Rain = 0
KDO1 200158Z 15008KT 17/05 A2981 RMK A01 T01720053  RH  045%=      5-min Rain = 0
KDO1 200159Z 14009KT 17/05 A2981 RMK A01 T01720053  RH  045%=      5-min Rain = 0
KDO1 200200Z 14007KT 17/05 A2981 RMK A01 T01710052  RH  045%=      5-min Rain = 0
KDO1 200201Z 14008KT 17/05 A2981 RMK A01 T01710052  RH  045%=      5-min Rain = 0
KDO1 200202Z 14008KT 17/05 A2981 RMK A01 T01710052  RH  045%=      5-min Rain = 0
KDO1 200203Z 14008KT 17/05 A2981 RMK A01 T01710051  RH  045%=      5-min Rain = 0
KDO1 200204Z 14007KT 17/05 A2981 RMK A01 T01700051  RH  045%=      5-min Rain = 0
KDO1 200205Z 14007KT 17/05 A2981 RMK A01 T01700051  RH  045%=      5-min Rain = 0
KDO1 200206Z 14007KT 17/05 A2981 RMK A01 T01690050  RH  045%=      5-min Rain = 0
KDO1 200207Z 14007KT 17/05 A2981 RMK A01 T01690050  RH  045%=      5-min Rain = 0
KDO1 200208Z 14007KT 17/05 A2981 RMK A01 T01690049  RH  045%=      5-min Rain = 0
KDO1 200209Z 14007KT 17/05 A2981 RMK A01 T01680049  RH  045%=      5-min Rain = 0
KDO1 200210Z 14006KT 17/05 A2981 RMK A01 T01680048  RH  045%=      5-min Rain = 0
KDO1 200211Z 14006KT 17/05 A2981 RMK A01 T01670048  RH  045%=      5-min Rain = 0
KDO1 200212Z 14007KT 17/05 A2981 RMK A01 T01670048  RH  045%=      5-min Rain = 0
KDO1 200213Z 14006KT 17/05 A2981 RMK A01 T01670048  RH  045%=      5-min Rain = 0
KDO1 200214Z 14006KT 17/05 A2981 RMK A01 T01670048  RH  045%=      5-min Rain = 0
KDO1 200215Z 14007KT 17/05 A2981 RMK A01 T01660047  RH  045%=      5-min Rain = 0
KDO1 200216Z 14007KT 17/05 A2981 RMK A01 T01660047  RH  045%=      5-min Rain = 0
KDO1 200217Z 13007KT 17/05 A2981 RMK A01 T01660047  RH  045%=      5-min Rain = 0
KDO1 200218Z 14006KT 17/05 A2981 RMK A01 T01660046  RH  045%=      5-min Rain = 0
KDO1 200219Z 13006KT 17/05 A2981 RMK A01 T01660046  RH  045%=      5-min Rain = 0
KDO1 200220Z 13007KT 17/05 A2981 RMK A01 T01660046  RH  045%=      5-min Rain = 0
KDO1 200221Z 14005KT 17/05 A2981 RMK A01 T01650046  RH  045%=      5-min Rain = 0
KDO1 200222Z 13006KT 16/05 A2981 RMK A01 T01640046  RH  045%=      5-min Rain = 0
KDO1 200223Z 13006KT 16/05 A2981 RMK A01 T01630046  RH  046%=      5-min Rain = 0
KDO1 200224Z 13006KT 16/05 A2981 RMK A01 T01630046  RH  046%=      5-min Rain = 0
KDO1 200225Z 13006KT 16/05 A2981 RMK A01 T01620045  RH  046%=      5-min Rain = 0
KDO1 200226Z 13006KT 16/05 A2981 RMK A01 T01610045  RH  046%=      5-min Rain = 0
KDO1 200227Z 13007KT 16/05 A2981 RMK A01 T01610045  RH  046%=      5-min Rain = 0
KDO1 200228Z 13007KT 16/05 A2981 RMK A01 T01610045  RH  046%=      5-min Rain = 0
KDO1 200229Z 13007KT 16/05 A2981 RMK A01 T01610045  RH  046%=      5-min Rain = 0
KDO1 200230Z 13007KT 16/05 A2981 RMK A01 T01610045  RH  046%=      5-min Rain = 0
KDO1 200231Z 14006KT 16/05 A2981 RMK A01 T01610045  RH  046%=      5-min Rain = 0
KDO1 200232Z 13006KT 16/04 A2981 RMK A01 T01600044  RH  046%=      5-min Rain = 0
KDO1 200233Z 13007KT 16/04 A2981 RMK A01 T01600044  RH  046%=      5-min Rain = 0
KDO1 200234Z 13007KT 16/04 A2981 RMK A01 T01600044  RH  046%=      5-min Rain = 0
KDO1 200235Z 13007KT 16/04 A2981 RMK A01 T01610044  RH  046%=      5-min Rain = 0
KDO1 200236Z 14007KT 16/04 A2981 RMK A01 T01610044  RH  046%=      5-min Rain = 0
KDO1 200237Z 13007KT 16/04 A2981 RMK A01 T01610044  RH  046%=      5-min Rain = 0
KDO1 200238Z 13007KT 16/04 A2981 RMK A01 T01610044  RH  046%=      5-min Rain = 0
KDO1 200239Z 14007KT 16/04 A2981 RMK A01 T01600044  RH  046%=      5-min Rain = 0
KDO1 200240Z 13007KT 16/04 A2981 RMK A01 T01600044  RH  046%=      5-min Rain = 0
KDO1 200241Z 13007KT 16/04 A2981 RMK A01 T01600043  RH  046%=      5-min Rain = 0
KDO1 200242Z 14008KT 16/04 A2981 RMK A01 T01590043  RH  046%=      5-min Rain = 0
KDO1 200243Z 13008KT 16/04 A2981 RMK A01 T01590043  RH  046%=      5-min Rain = 0
KDO1 200244Z 13007KT 16/04 A2981 RMK A01 T01600043  RH  046%=      5-min Rain = 0
KDO1 200245Z 14008KT 16/04 A2981 RMK A01 T01590042  RH  046%=      5-min Rain = 0
KDO1 200246Z 13007KT 16/04 A2981 RMK A01 T01600043  RH  046%=      5-min Rain = 0
KDO1 200247Z 14007KT 16/04 A2981 RMK A01 T01600043  RH  046%=      5-min Rain = 0
KDO1 200248Z 13006KT 16/04 A2981 RMK A01 T01600043  RH  046%=      5-min Rain = 0
KDO1 200249Z 13007KT 16/04 A2981 RMK A01 T01590042  RH  046%=      5-min Rain = 0
KDO1 200250Z 13007KT 16/04 A2981 RMK A01 T01590043  RH  046%=      5-min Rain = 0
KDO1 200251Z 13007KT 16/04 A2981 RMK A01 T01590042  RH  046%=      5-min Rain = 0
KDO1 200252Z 13007KT 16/04 A2981 RMK A01 T01590042  RH  046%=      5-min Rain = 0
KDO1 200253Z 13007KT 16/04 A2981 RMK A01 T01590042  RH  046%=      5-min Rain = 0
KDO1 200254Z 13007KT 16/04 A2981 RMK A01 T01590042  RH  046%=      5-min Rain = 0
KDO1 200255Z 13007KT 16/04 A2981 RMK A01 T01580042  RH  046%=      5-min Rain = 0
KDO1 200256Z 13007KT 16/04 A2981 RMK A01 T01580042  RH  046%=      5-min Rain = 0
KDO1 200257Z 13008KT 16/04 A2981 RMK A01 T01580042  RH  046%=      5-min Rain = 0
KDO1 200258Z 13007KT 16/04 A2981 RMK A01 T01570041  RH  046%=      5-min Rain = 0
KDO1 200259Z 14007KT 16/04 A2981 RMK A01 T01580041  RH  046%=      5-min Rain = 0
KDO1 200300Z 13007KT 16/04 A2981 RMK A01 T01580041  RH  046%=      5-min Rain = 0
KDO1 200301Z 13007KT 16/04 A2981 RMK A01 T01580041  RH  046%=      5-min Rain = 0
KDO1 200302Z 13007KT 16/04 A2981 RMK A01 T01580041  RH  046%=      5-min Rain = 0
KDO1 200303Z 13007KT 16/04 A2981 RMK A01 T01580041  RH  046%=      5-min Rain = 0
KDO1 200304Z 14007KT 16/04 A2981 RMK A01 T01580041  RH  046%=      5-min Rain = 0
KDO1 200305Z 14007KT 16/04 A2981 RMK A01 T01580041  RH  046%=      5-min Rain = 0
KDO1 200306Z 13008KT 16/04 A2981 RMK A01 T01560041  RH  046%=      5-min Rain = 0
KDO1 200307Z 14007KT 16/04 A2981 RMK A01 T01560041  RH  046%=      5-min Rain = 0
KDO1 200308Z 13007KT 16/04 A2981 RMK A01 T01560041  RH  046%=      5-min Rain = 0
KDO1 200309Z 13007KT 16/04 A2981 RMK A01 T01560041  RH  046%=      5-min Rain = 0
KDO1 200310Z 13006KT 16/04 A2981 RMK A01 T01560041  RH  046%=      5-min Rain = 0
KDO1 200311Z 13006KT 16/04 A2981 RMK A01 T01550041  RH  046%=      5-min Rain = 0
KDO1 200312Z 13006KT 16/04 A2981 RMK A01 T01550041  RH  046%=      5-min Rain = 0
KDO1 200313Z 13006KT 15/04 A2981 RMK A01 T01540041  RH  047%=      5-min Rain = 0
KDO1 200314Z 13006KT 15/04 A2981 RMK A01 T01530040  RH  047%=      5-min Rain = 0
KDO1 200315Z 13006KT 15/04 A2981 RMK A01 T01530040  RH  047%=      5-min Rain = 0
KDO1 200316Z 13006KT 15/04 A2981 RMK A01 T01530040  RH  047%=      5-min Rain = 0
KDO1 200317Z 14006KT 15/04 A2981 RMK A01 T01520040  RH  047%=      5-min Rain = 0
KDO1 200318Z 14006KT 15/04 A2981 RMK A01 T01520040  RH  047%=      5-min Rain = 0
KDO1 200319Z 14007KT 15/04 A2981 RMK A01 T01520040  RH  047%=      5-min Rain = 0
KDO1 200320Z 14007KT 15/04 A2981 RMK A01 T01520040  RH  047%=      5-min Rain = 0
KDO1 200321Z 13006KT 15/04 A2981 RMK A01 T01520040  RH  047%=      5-min Rain = 0
KDO1 200322Z 13007KT 15/04 A2981 RMK A01 T01520040  RH  047%=      5-min Rain = 0
KDO1 200323Z 13006KT 15/04 A2981 RMK A01 T01510040  RH  047%=      5-min Rain = 0
KDO1 200324Z 13006KT 15/04 A2981 RMK A01 T01510040  RH  047%=      5-min Rain = 0
KDO1 200325Z 13006KT 15/04 A2981 RMK A01 T01500040  RH  048%=      5-min Rain = 0
KDO1 200326Z 13006KT 15/04 A2981 RMK A01 T01490040  RH  048%=      5-min Rain = 0
KDO1 200327Z 13006KT 15/04 A2981 RMK A01 T01490040  RH  048%=      5-min Rain = 0
KDO1 200328Z 13006KT 15/04 A2981 RMK A01 T01490040  RH  048%=      5-min Rain = 0
KDO1 200329Z 13006KT 15/04 A2981 RMK A01 T01480039  RH  048%=      5-min Rain = 0
KDO1 200330Z 13006KT 15/04 A2981 RMK A01 T01480040  RH  048%=      5-min Rain = 0
KDO1 200331Z 14006KT 15/04 A2981 RMK A01 T01470039  RH  048%=      5-min Rain = 0
KDO1 200332Z 13006KT 15/04 A2981 RMK A01 T01470039  RH  048%=      5-min Rain = 0
KDO1 200333Z 14006KT 15/04 A2981 RMK A01 T01470039  RH  048%=      5-min Rain = 0
KDO1 200334Z 14006KT 15/04 A2981 RMK A01 T01470039  RH  049%=      5-min Rain = 0
KDO1 200335Z 14006KT 15/04 A2981 RMK A01 T01470039  RH  049%=      5-min Rain = 0
KDO1 200336Z 14006KT 15/04 A2982 RMK A01 T01470039  RH  048%=      5-min Rain = 0
KDO1 200337Z 14006KT 15/04 A2982 RMK A01 T01470039  RH  048%=      5-min Rain = 0
KDO1 200338Z 14006KT 15/04 A2982 RMK A01 T01470039  RH  048%=      5-min Rain = 0
KDO1 200339Z 13006KT 15/04 A2982 RMK A01 T01470039  RH  049%=      5-min Rain = 0
KDO1 200340Z 13006KT 15/04 A2982 RMK A01 T01460039  RH  049%=      5-min Rain = 0
KDO1 200341Z 14005KT 15/04 A2982 RMK A01 T01460039  RH  049%=      5-min Rain = 0
KDO1 200342Z 14006KT 15/04 A2982 RMK A01 T01460039  RH  049%=      5-min Rain = 0
KDO1 200343Z 14006KT 15/04 A2982 RMK A01 T01460039  RH  049%=      5-min Rain = 0
KDO1 200344Z 14006KT 15/04 A2982 RMK A01 T01460039  RH  049%=      5-min Rain = 0
KDO1 200345Z 13005KT 15/04 A2982 RMK A01 T01460039  RH  049%=      5-min Rain = 0
KDO1 200346Z 13006KT 15/04 A2982 RMK A01 T01460039  RH  049%=      5-min Rain = 0
KDO1 200347Z 13006KT 15/04 A2982 RMK A01 T01460039  RH  049%=      5-min Rain = 0
KDO1 200348Z 13006KT 15/04 A2982 RMK A01 T01450039  RH  049%=      5-min Rain = 0
KDO1 200349Z 13005KT 15/04 A2982 RMK A01 T01450039  RH  049%=      5-min Rain = 0
KDO1 200350Z 13006KT 14/04 A2982 RMK A01 T01440039  RH  049%=      5-min Rain = 0
KDO1 200351Z 13006KT 14/04 A2982 RMK A01 T01440039  RH  049%=      5-min Rain = 0
KDO1 200352Z 13005KT 14/04 A2982 RMK A01 T01430039  RH  049%=      5-min Rain = 0
KDO1 200353Z 13005KT 14/04 A2982 RMK A01 T01420038  RH  050%=      5-min Rain = 0
KDO1 200354Z 14005KT 14/04 A2982 RMK A01 T01420038  RH  050%=      5-min Rain = 0
KDO1 200355Z 13005KT 14/04 A2982 RMK A01 T01420038  RH  050%=      5-min Rain = 0
KDO1 200356Z 13005KT 14/04 A2982 RMK A01 T01420038  RH  050%=      5-min Rain = 0
KDO1 200357Z 13005KT 14/04 A2982 RMK A01 T01410038  RH  050%=      5-min Rain = 0
KDO1 200358Z 13005KT 14/04 A2982 RMK A01 T01410038  RH  050%=      5-min Rain = 0
KDO1 200359Z 13004KT 14/04 A2982 RMK A01 T01410038  RH  050%=      5-min Rain = 0
KDO1 200400Z 13004KT 14/04 A2982 RMK A01 T01410039  RH  050%=      5-min Rain = 0
KDO1 200401Z 13004KT 14/04 A2982 RMK A01 T01400038  RH  050%=      5-min Rain = 0
KDO1 200402Z 13004KT 14/04 A2982 RMK A01 T01410038  RH  050%=      5-min Rain = 0
KDO1 200403Z 13004KT 14/04 A2982 RMK A01 T01410038  RH  050%=      5-min Rain = 0
KDO1 200404Z 13004KT 14/04 A2982 RMK A01 T01410038  RH  050%=      5-min Rain = 0
KDO1 200405Z 14004KT 14/04 A2982 RMK A01 T01410038  RH  050%=      5-min Rain = 0
KDO1 200406Z 13004KT 14/04 A2982 RMK A01 T01400038  RH  050%=      5-min Rain = 0
KDO1 200407Z 13003KT 14/04 A2982 RMK A01 T01400038  RH  050%=      5-min Rain = 0
KDO1 200408Z 13003KT 14/04 A2982 RMK A01 T01400038  RH  050%=      5-min Rain = 0
KDO1 200409Z 13003KT 14/04 A2982 RMK A01 T01400038  RH  050%=      5-min Rain = 0
KDO1 200410Z 13003KT 14/04 A2982 RMK A01 T01390038  RH  050%=      5-min Rain = 0
KDO1 200411Z 12003KT 14/04 A2982 RMK A01 T01390038  RH  050%=      5-min Rain = 0
KDO1 200412Z 11003KT 14/04 A2982 RMK A01 T01380038  RH  051%=      5-min Rain = 0
KDO1 200413Z 11002KT 14/04 A2982 RMK A01 T01380038  RH  051%=      5-min Rain = 0
KDO1 200414Z 10003KT 14/04 A2982 RMK A01 T01380037  RH  051%=      5-min Rain = 0
KDO1 200415Z 10003KT 14/04 A2982 RMK A01 T01380038  RH  051%=      5-min Rain = 0
KDO1 200416Z 10003KT 14/04 A2982 RMK A01 T01370037  RH  051%=      5-min Rain = 0
KDO1 200417Z 10002KT 14/04 A2981 RMK A01 T01370037  RH  051%=      5-min Rain = 0
KDO1 200418Z 10002KT 14/04 A2981 RMK A01 T01370038  RH  051%=      5-min Rain = 0
KDO1 200419Z 10002KT 14/04 A2981 RMK A01 T01370037  RH  051%=      5-min Rain = 0
KDO1 200420Z 11003KT 14/04 A2981 RMK A01 T01370037  RH  051%=      5-min Rain = 0
KDO1 200421Z 10002KT 14/04 A2981 RMK A01 T01370037  RH  051%=      5-min Rain = 0
KDO1 200422Z 10003KT 14/04 A2981 RMK A01 T01370037  RH  051%=      5-min Rain = 0
KDO1 200423Z 09003KT 14/04 A2981 RMK A01 T01370037  RH  051%=      5-min Rain = 0
KDO1 200424Z 10003KT 14/04 A2981 RMK A01 T01370037  RH  051%=      5-min Rain = 0
KDO1 200425Z 09003KT 14/04 A2981 RMK A01 T01360037  RH  051%=      5-min Rain = 0
KDO1 200426Z 09003KT 14/04 A2981 RMK A01 T01350036  RH  051%=      5-min Rain = 0
KDO1 200427Z 09003KT 13/04 A2981 RMK A01 T01340036  RH  051%=      5-min Rain = 0
KDO1 200428Z 09003KT 13/04 A2981 RMK A01 T01340037  RH  052%=      5-min Rain = 0
KDO1 200429Z 09003KT 13/04 A2981 RMK A01 T01330036  RH  052%=      5-min Rain = 0
KDO1 200430Z 09003KT 13/04 A2981 RMK A01 T01330036  RH  052%=      5-min Rain = 0
KDO1 200431Z 09003KT 13/04 A2981 RMK A01 T01320036  RH  052%=      5-min Rain = 0
KDO1 200432Z 09003KT 13/04 A2981 RMK A01 T01320036  RH  052%=      5-min Rain = 0
KDO1 200433Z 09003KT 13/04 A2981 RMK A01 T01320036  RH  052%=      5-min Rain = 0
KDO1 200434Z 09003KT 13/04 A2981 RMK A01 T01320037  RH  052%=      5-min Rain = 0
KDO1 200435Z 09003KT 13/04 A2981 RMK A01 T01320036  RH  052%=      5-min Rain = 0
KDO1 200436Z 09003KT 13/04 A2981 RMK A01 T01320036  RH  052%=      5-min Rain = 0
KDO1 200437Z 09003KT 13/04 A2981 RMK A01 T01320036  RH  052%=      5-min Rain = 0
KDO1 200438Z 09003KT 13/04 A2981 RMK A01 T01320036  RH  052%=      5-min Rain = 0
KDO1 200439Z 08003KT 13/04 A2981 RMK A01 T01320036  RH  052%=      5-min Rain = 0
KDO1 200440Z 08003KT 13/04 A2981 RMK A01 T01330037  RH  052%=      5-min Rain = 0
KDO1 200441Z 08003KT 13/04 A2981 RMK A01 T01320036  RH  052%=      5-min Rain = 0
KDO1 200442Z 08003KT 13/04 A2981 RMK A01 T01320036  RH  052%=      5-min Rain = 0
KDO1 200443Z 08004KT 13/04 A2981 RMK A01 T01320036  RH  052%=      5-min Rain = 0
KDO1 200444Z 08004KT 13/04 A2981 RMK A01 T01320036  RH  052%=      5-min Rain = 0
KDO1 200445Z 08004KT 13/04 A2981 RMK A01 T01320036  RH  052%=      5-min Rain = 0
KDO1 200446Z 08004KT 13/04 A2981 RMK A01 T01320036  RH  052%=      5-min Rain = 0
KDO1 200447Z 08004KT 13/04 A2981 RMK A01 T01310036  RH  052%=      5-min Rain = 0
KDO1 200448Z 08004KT 13/04 A2981 RMK A01 T01310036  RH  052%=      5-min Rain = 0
KDO1 200449Z 08004KT 13/04 A2981 RMK A01 T01310036  RH  052%=      5-min Rain = 0
KDO1 200450Z 07004KT 13/04 A2981 RMK A01 T01310036  RH  052%=      5-min Rain = 0
KDO1 200451Z 09004KT 13/04 A2981 RMK A01 T01310036  RH  053%=      5-min Rain = 0
KDO1 200452Z 08004KT 13/04 A2981 RMK A01 T01300036  RH  053%=      5-min Rain = 0
KDO1 200453Z 08004KT 13/04 A2981 RMK A01 T01300036  RH  053%=      5-min Rain = 0
KDO1 200454Z 08004KT 13/04 A2981 RMK A01 T01300036  RH  053%=      5-min Rain = 0
KDO1 200455Z 08004KT 13/04 A2981 RMK A01 T01300036  RH  053%=      5-min Rain = 0
KDO1 200456Z 09004KT 13/04 A2981 RMK A01 T01290036  RH  053%=      5-min Rain = 0
KDO1 200457Z 09004KT 13/04 A2981 RMK A01 T01290036  RH  053%=      5-min Rain = 0
KDO1 200458Z 09004KT 13/04 A298 RMK A01 T01290036  RH  053%=      5-min Rain = 0
KDO1 200459Z 09003KT 13/04 A298 RMK A01 T01290036  RH  053%=      5-min Rain = 0
KDO1 200500Z 09003KT 13/04 A298 RMK A01 T01290036  RH  053%=      5-min Rain = 0
KDO1 200501Z 08003KT 13/04 A298 RMK A01 T01290036  RH  053%=      5-min Rain = 0
KDO1 200502Z 09003KT 13/04 A298 RMK A01 T01290036  RH  053%=      5-min Rain = 0
KDO1 200503Z 08003KT 13/04 A298 RMK A01 T01290036  RH  053%=      5-min Rain = 0
KDO1 200504Z 09004KT 13/04 A298 RMK A01 T01280036  RH  053%=      5-min Rain = 0
KDO1 200505Z 09004KT 13/04 A298 RMK A01 T01280036  RH  053%=      5-min Rain = 0
KDO1 200506Z 09004KT 13/04 A298 RMK A01 T01280036  RH  053%=      5-min Rain = 0
KDO1 200507Z 09004KT 13/04 A298 RMK A01 T01280035  RH  053%=      5-min Rain = 0
KDO1 200508Z 09004KT 13/04 A298 RMK A01 T01270035  RH  054%=      5-min Rain = 0
KDO1 200509Z 10004KT 13/04 A298 RMK A01 T01260035  RH  054%=      5-min Rain = 0
KDO1 200510Z 10004KT 13/04 A298 RMK A01 T01250035  RH  054%=      5-min Rain = 0
KDO1 200516Z 11003KT 12/04 A298 RMK A01 T01240035  RH  055%=      5-min Rain = 0
KDO1 200517Z 12003KT 12/04 A298 RMK A01 T01240035  RH  055%=      5-min Rain = 0
KDO1 200518Z 11003KT 12/04 A298 RMK A01 T01240035  RH  055%=      5-min Rain = 0
KDO1 200519Z 12003KT 12/04 A298 RMK A01 T01230035  RH  055%=      5-min Rain = 0
KDO1 200520Z 12004KT 12/04 A298 RMK A01 T01230035  RH  055%=      5-min Rain = 0
KDO1 200521Z 13004KT 12/03 A298 RMK A01 T01220034  RH  055%=      5-min Rain = 0
KDO1 200522Z 13003KT 12/03 A298 RMK A01 T01220034  RH  055%=      5-min Rain = 0
KDO1 200523Z 13004KT 12/04 A298 RMK A01 T01210035  RH  055%=      5-min Rain = 0
KDO1 200524Z 13004KT 12/04 A298 RMK A01 T01210035  RH  055%=      5-min Rain = 0
KDO1 200525Z 13004KT 12/03 A298 RMK A01 T01210034  RH  056%=      5-min Rain = 0
KDO1 200526Z 12003KT 12/04 A298 RMK A01 T01210035  RH  056%=      5-min Rain = 0
KDO1 200527Z 13004KT 12/04 A298 RMK A01 T01210035  RH  056%=      5-min Rain = 0
KDO1 200528Z 12004KT 12/04 A298 RMK A01 T01200035  RH  056%=      5-min Rain = 0
KDO1 200529Z 13004KT 12/04 A298 RMK A01 T01200035  RH  056%=      5-min Rain = 0
KDO1 200530Z 13004KT 12/04 A298 RMK A01 T01200035  RH  056%=      5-min Rain = 0
KDO1 200531Z 13004KT 12/04 A298 RMK A01 T01210035  RH  056%=      5-min Rain = 0
KDO1 200532Z 13004KT 12/04 A298 RMK A01 T01210035  RH  055%=      5-min Rain = 0
KDO1 200533Z 13004KT 12/04 A298 RMK A01 T01210035  RH  055%=      5-min Rain = 0
KDO1 200534Z 13005KT 12/04 A298 RMK A01 T01210035  RH  056%=      5-min Rain = 0
KDO1 200535Z 13005KT 12/04 A298 RMK A01 T01210035  RH  056%=      5-min Rain = 0
KDO1 200536Z 13004KT 12/04 A298 RMK A01 T01220035  RH  055%=      5-min Rain = 0
KDO1 200537Z 14004KT 12/04 A298 RMK A01 T01220035  RH  055%=      5-min Rain = 0
KDO1 200538Z 14004KT 12/04 A298 RMK A01 T01220035  RH  055%=      5-min Rain = 0
KDO1 200539Z 13004KT 12/04 A298 RMK A01 T01220035  RH  055%=      5-min Rain = 0
KDO1 200540Z 14005KT 12/04 A298 RMK A01 T01220035  RH  055%=      5-min Rain = 0
KDO1 200541Z 14005KT 12/04 A298 RMK A01 T01220035  RH  055%=      5-min Rain = 0
KDO1 200542Z 14005KT 12/04 A298 RMK A01 T01230036  RH  055%=      5-min Rain = 0
KDO1 200543Z 14005KT 12/04 A298 RMK A01 T01230035  RH  055%=      5-min Rain = 0
KDO1 200544Z 14004KT 12/04 A298 RMK A01 T01230036  RH  055%=      5-min Rain = 0
KDO1 200545Z 15005KT 12/04 A298 RMK A01 T01230036  RH  055%=      5-min Rain = 0
KDO1 200546Z 15005KT 12/04 A298 RMK A01 T01230036  RH  055%=      5-min Rain = 0
KDO1 200547Z 15004KT 12/04 A298 RMK A01 T01230036  RH  055%=      5-min Rain = 0
KDO1 200548Z 15005KT 12/04 A298 RMK A01 T01230036  RH  055%=      5-min Rain = 0
KDO1 200549Z 15006KT 12/04 A298 RMK A01 T01220036  RH  056%=      5-min Rain = 0
KDO1 200550Z 15006KT 12/04 A298 RMK A01 T01220036  RH  056%=      5-min Rain = 0
KDO1 200551Z 15006KT 12/04 A298 RMK A01 T01230036  RH  055%=      5-min Rain = 0
KDO1 200552Z 15006KT 12/04 A298 RMK A01 T01230037  RH  056%=      5-min Rain = 0
KDO1 200553Z 15006KT 12/04 A298 RMK A01 T01230037  RH  056%=      5-min Rain = 0
KDO1 200554Z 15006KT 12/04 A298 RMK A01 T01230037  RH  056%=      5-min Rain = 0
KDO1 200555Z 16006KT 12/04 A298 RMK A01 T01230037  RH  056%=      5-min Rain = 0
KDO1 200556Z 16006KT 12/04 A298 RMK A01 T01230037  RH  056%=      5-min Rain = 0
KDO1 200557Z 16006KT 12/04 A298 RMK A01 T01230037  RH  056%=      5-min Rain = 0
KDO1 200558Z 16006KT 12/04 A298 RMK A01 T01240037  RH  056%=      5-min Rain = 0
KDO1 200559Z 16006KT 12/04 A298 RMK A01 T01240038  RH  056%=      5-min Rain = 0

Page generated in 0.1189 seconds.